Behrens, Klaus (2017): Meteorological synoptical observations from station Lindenberg (2013-04) [dataset]. Meteorologisches Observatorium Potsdam, PANGAEA, https://doi.org/10.1594/PANGAEA.880698
Always quote citation above when using data! You can download the citation in several formats below.
Published: 2017-09-18 • DOI registered: 2017-10-16
Other version:
Behrens, Klaus (2017): BSRN Station-to-archive file for station Lindenberg (2013-04) [dataset]. ftp://ftp.bsrn.awi.de/lin/lin0413.dat.gz
Project(s):
Coverage:
Latitude: 52.210000 * Longitude: 14.122000
Date/Time Start: 2013-04-01T00:00:00 * Date/Time End: 2013-04-30T23:00:00
Minimum Elevation: 125.0 m * Maximum Elevation: 125.0 m
Event(s):
LIN (Lindenberg) * Latitude: 52.210000 * Longitude: 14.122000 * Date/Time: 1994-09-01T00:00:00 * Elevation: 125.0 m * Location: Germany * Method/Device: Monitoring station (MONS) * Comment: BSRN station no: 12; Surface type: cultivated; Topography type: hilly, rural; Horizon: doi:10.1594/PANGAEA.669521; Station scientist: Stefan Wacker (Stefan.Wacker@dwd.de)
Parameter(s):
| # | Name | Short Name | Unit | Principal Investigator | Method/Device | Comment |
|---|---|---|---|---|---|---|
| 1 | DATE/TIME | Date/Time | Behrens, Klaus | Geocode | ||
| 2 | Total cloud amount | N | code | Behrens, Klaus | Visual observation | |
| 3 | Wind direction | dd | deg | Behrens, Klaus | Anemometer | |
| 4 | Wind speed | ff | m/s | Behrens, Klaus | Anemometer | |
| 5 | Temperature, air | TTT | °C | Behrens, Klaus | Thermometer | |
| 6 | Dew/frost point | TdTdTd | °C | Behrens, Klaus | Hygrometer (HYGRO) | |
| 7 | Station pressure | PoPoPoPo | hPa | Behrens, Klaus | Barometer (BARO) | |
| 8 | Pressure, atmospheric | PPPP | hPa | Behrens, Klaus | Barometer (BARO) | |
| 9 | Present weather | ww | code | Behrens, Klaus | Visual observation | |
| 10 | Past weather1 | W1 | code | Behrens, Klaus | Visual observation | |
| 11 | Past weather2 | W2 | code | Behrens, Klaus | Visual observation | |
| 12 | Code | Code | Behrens, Klaus | YYGG9 IIiii Nddff 1SnTTT 2SnTdTdTd 3P0P0P0 4PPPP 7wwW1W2 8NhClCmCh 333 8NsChshs 8NsChshs 8NsChshs |
License:
Size:
6396 data points
Data
| 1 Date/Time | 2 N [code] | 3 dd [deg] | 4 ff [m/s] | 5 TTT [°C] | 6 TdTdTd [°C] | 7 PoPoPoPo [hPa] | 8 PPPP [hPa] | 9 ww [code] | 10 W1 [code] | 11 W2 [code] | 12 Code |
|---|---|---|---|---|---|---|---|---|---|---|---|
| 2013-04-01T00:00 | 8 | 340 | 2 | -1.5 | -2.6 | 996 | 1009 | 70 | 8 | 7 | 01009 10393 83402 11015 21026 39964 40094 77087 8//// |
| 2013-04-01T01:00 | 8 | 330 | 2 | -1.6 | -2.7 | 996 | 1009 | 70 | 7 | 7 | 01019 10393 83302 11016 21027 39962 40092 77077 8//// |
| 2013-04-01T02:00 | 8 | 320 | 2 | -1.6 | -2.6 | 996 | 1009 | 71 | 7 | 7 | 01029 10393 83202 11016 21026 39962 40092 77177 8//// |
| 2013-04-01T03:00 | 8 | 330 | 3 | -1.5 | -2.2 | 996 | 1009 | 71 | 7 | 2 | 01039 10393 83303 11015 21022 39962 40092 77172 8//// |
| 2013-04-01T04:00 | 8 | 330 | 3 | -1.5 | -2.2 | 996 | 1009 | 71 | 7 | 7 | 01049 10393 83303 11015 21022 39960 40090 77177 8//// |
| 2013-04-01T05:00 | 8 | 320 | 3 | -1.6 | -2.3 | 996 | 1009 | 71 | 7 | 7 | 01059 10393 83203 11016 21023 39960 40090 77177 8//// |
| 2013-04-01T06:00 | 8 | 330 | 3 | -1.5 | -2.3 | 996 | 1009 | 71 | 7 | 2 | 01069 10393 83303 11015 21023 39961 40091 77172 8//// |
| 2013-04-01T07:00 | 7 | 340 | 3 | -0.7 | -2.6 | 996 | 1009 | 70 | 7 | 7 | 01079 10393 73403 11007 21026 39963 40093 77077 8//// |
| 2013-04-01T08:00 | 7 | 350 | 3 | 0.3 | -3.4 | 996 | 1010 | 70 | 2 | 2 | 01089 10393 73503 10003 21034 39965 40095 77022 8//// |
| 2013-04-01T09:00 | 7 | 350 | 4 | 0.6 | -3.8 | 997 | 1010 | 60 | 7 | 2 | 01099 10393 73504 10006 21038 39968 40098 76072 8//// |
| 2013-04-01T10:00 | 7 | 350 | 3 | 0.8 | -3.6 | 997 | 1010 | 80 | 8 | 6 | 01109 10393 73503 10008 21036 39971 40100 78086 8//// |
| 2013-04-01T11:00 | 8 | 340 | 3 | 1.5 | -2.7 | 997 | 1010 | 85 | 2 | 2 | 01119 10393 83403 10015 21027 39973 40102 78522 8//// |
| 2013-04-01T12:00 | 8 | 330 | 3 | 0.6 | -1.9 | 998 | 1011 | 85 | 8 | 7 | 01129 10393 83303 10006 21019 39978 40108 78587 8//// |
| 2013-04-01T13:00 | 8 | 350 | 2 | 1.4 | -2.3 | 998 | 1011 | 85 | 8 | 8 | 01139 10393 83502 10014 21023 39978 40107 78588 8//// |
| 2013-04-01T14:00 | 8 | 320 | 3 | 0.9 | -2.1 | 998 | 1011 | 85 | 2 | 2 | 01149 10393 83203 10009 21021 39982 40112 78522 8//// |
| 2013-04-01T15:00 | 7 | 340 | 3 | 2.1 | -4.8 | 998 | 1011 | 26 | 8 | 2 | 01159 10393 73403 10021 21048 39982 40111 72682 8//// |
| 2013-04-01T16:00 | 7 | 350 | 2 | 1.8 | -5.2 | 998 | 1011 | 01169 10393 73502 10018 21052 39985 40114 7//// 8//// | |||
| 2013-04-01T17:00 | 7 | 350 | 2 | 1.4 | -5.3 | 999 | 1012 | 01179 10393 73502 10014 21053 39987 40116 7//// 8//// | |||
| 2013-04-01T18:00 | 7 | 360 | 2 | 0.3 | -4.8 | 999 | 1012 | 26 | 8 | 2 | 01189 10393 73602 10003 21048 39992 40122 72682 8//// |
| 2013-04-01T19:00 | 8 | 10 | 2 | -0.1 | -3.9 | 1000 | 1013 | 01199 10393 80102 11001 21039 39999 40129 7//// 8//// | |||
| 2013-04-01T20:00 | 8 | 10 | 2 | -0.7 | -3.8 | 1000 | 1013 | 01209 10393 80102 11007 21038 30000 40131 7//// 8//// | |||
| 2013-04-01T21:00 | 8 | 20 | 2 | -0.5 | -3.6 | 1000 | 1013 | 01219 10393 80202 11005 21036 30000 40130 7//// 8//// | |||
| 2013-04-01T22:00 | 6 | 20 | 2 | -1.5 | -3.8 | 1000 | 1013 | 01229 10393 60202 11015 21038 30002 40133 7//// 8//// | |||
| 2013-04-01T23:00 | 0 | 30 | 2 | -2.6 | -3.9 | 1000 | 1014 | 01239 10393 00302 11026 21039 30003 40135 7//// 8//// | |||
| 2013-04-02T00:00 | 3 | 30 | 2 | -3.1 | -4.1 | 1001 | 1014 | 02009 10393 30302 11031 21041 30006 40138 7//// 8//// | |||
| 2013-04-02T01:00 | 2 | 20 | 2 | -3.7 | -4.5 | 1001 | 1014 | 02019 10393 20202 11037 21045 30006 40138 7//// 8//// | |||
| 2013-04-02T02:00 | 2 | 50 | 3 | -3.1 | -3.8 | 1001 | 1014 | 02029 10393 20503 11031 21038 30007 40139 7//// 8//// | |||
| 2013-04-02T03:00 | 2 | 30 | 2 | -4.4 | -4.9 | 1001 | 1014 | 10 | 1 | 1 | 02039 10393 20302 11044 21049 30009 40142 71011 8//// |
| 2013-04-02T04:00 | 7 | 30 | 2 | -4.2 | -4.2 | 1001 | 1014 | 10 | 1 | 1 | 02049 10393 70302 11042 21042 30010 40142 71011 8//// |
| 2013-04-02T05:00 | 6 | 60 | 2 | -2.8 | -3.7 | 1001 | 1014 | 10 | 2 | 2 | 02059 10393 60602 11028 21037 30011 40143 71022 8//// |
| 2013-04-02T06:00 | 5 | 40 | 3 | -2.8 | -4.0 | 1002 | 1015 | 10 | 1 | 1 | 02069 10393 50403 11028 21040 30015 40147 71011 8//// |
| 2013-04-02T07:00 | 6 | 50 | 3 | -1.4 | -4.0 | 1002 | 1015 | 02079 10393 60503 11014 21040 30019 40150 7//// 8//// | |||
| 2013-04-02T08:00 | 3 | 70 | 3 | -0.6 | -3.6 | 1002 | 1015 | 02089 10393 30703 11006 21036 30022 40153 7//// 8//// | |||
| 2013-04-02T09:00 | 4 | 60 | 3 | 0.5 | -4.0 | 1002 | 1015 | 02099 10393 40603 10005 21040 30024 40154 7//// 8//// | |||
| 2013-04-02T10:00 | 7 | 70 | 3 | 1.6 | -4.4 | 1003 | 1016 | 02109 10393 70703 10016 21044 30027 40157 7//// 8//// | |||
| 2013-04-02T11:00 | 8 | 70 | 3 | 2.1 | -4.6 | 1003 | 1016 | 02119 10393 80703 10021 21046 30029 40159 7//// 8//// | |||
| 2013-04-02T12:00 | 7 | 50 | 3 | 2.1 | -4.6 | 1003 | 1016 | 02129 10393 70503 10021 21046 30031 40161 7//// 8//// | |||
| 2013-04-02T13:00 | 8 | 60 | 3 | 2.3 | -5.4 | 1003 | 1016 | 02139 10393 80603 10023 21054 30031 40161 7//// 8//// | |||
| 2013-04-02T14:00 | 7 | 50 | 3 | 2.5 | -5.0 | 1003 | 1016 | 02149 10393 70503 10025 21050 30030 40159 7//// 8//// | |||
| 2013-04-02T15:00 | 8 | 60 | 4 | 2.2 | -5.1 | 1003 | 1016 | 02159 10393 80604 10022 21051 30031 40161 7//// 8//// | |||
| 2013-04-02T16:00 | 8 | 60 | 4 | 1.9 | -5.2 | 1004 | 1016 | 02169 10393 80604 10019 21052 30035 40165 7//// 8//// | |||
| 2013-04-02T17:00 | 8 | 60 | 3 | 1.6 | -5.1 | 1004 | 1017 | 02179 10393 80603 10016 21051 30039 40169 7//// 8//// | |||
| 2013-04-02T18:00 | 8 | 70 | 3 | 1.3 | -5.6 | 1004 | 1018 | 02189 10393 80703 10013 21056 30045 40175 7//// 8//// | |||
| 2013-04-02T19:00 | 8 | 80 | 3 | 1.1 | -6.1 | 1005 | 1018 | 02199 10393 80803 10011 21061 30049 40179 7//// 8//// | |||
| 2013-04-02T20:00 | 8 | 80 | 2 | 0.9 | -5.9 | 1005 | 1018 | 02209 10393 80802 10009 21059 30053 40184 7//// 8//// | |||
| 2013-04-02T21:00 | 8 | 50 | 2 | 0.6 | -5.5 | 1005 | 1018 | 02219 10393 80502 10006 21055 30053 40184 7//// 8//// | |||
| 2013-04-02T22:00 | 8 | 50 | 3 | 0.6 | -5.1 | 1005 | 1018 | 02229 10393 80503 10006 21051 30052 40183 7//// 8//// | |||
| 2013-04-02T23:00 | 8 | 60 | 3 | 0.4 | -4.5 | 1005 | 1018 | 02239 10393 80603 10004 21045 30054 40185 7//// 8//// | |||
| 2013-04-03T00:00 | 8 | 60 | 3 | 0.3 | -4.2 | 1006 | 1019 | 03009 10393 80603 10003 21042 30056 40187 7//// 8//// | |||
| 2013-04-03T01:00 | 8 | 50 | 2 | 0.2 | -3.8 | 1006 | 1019 | 03019 10393 80502 10002 21038 30057 40188 7//// 8//// | |||
| 2013-04-03T02:00 | 8 | 50 | 3 | 0.1 | -4.4 | 1006 | 1019 | 03029 10393 80503 10001 21044 30058 40189 7//// 8//// | |||
| 2013-04-03T03:00 | 8 | 50 | 3 | 0.0 | -4.5 | 1006 | 1019 | 03039 10393 80503 10000 21045 30058 40189 7//// 8//// | |||
| 2013-04-03T04:00 | 8 | 40 | 3 | -0.1 | -4.6 | 1006 | 1019 | 03049 10393 80403 11001 21046 30058 40189 7//// 8//// | |||
| 2013-04-03T05:00 | 8 | 40 | 3 | -0.3 | -4.6 | 1006 | 1019 | 03059 10393 80403 11003 21046 30058 40189 7//// 8//// | |||
| 2013-04-03T06:00 | 8 | 40 | 2 | -0.3 | -4.8 | 1006 | 1019 | 03069 10393 80402 11003 21048 30061 40192 7//// 8//// | |||
| 2013-04-03T07:00 | 8 | 40 | 2 | -0.3 | -5.3 | 1006 | 1019 | 03079 10393 80402 11003 21053 30063 40194 7//// 8//// | |||
| 2013-04-03T08:00 | 8 | 50 | 3 | 0.0 | -5.1 | 1007 | 1020 | 03089 10393 80503 10000 21051 30066 40197 7//// 8//// | |||
| 2013-04-03T09:00 | 8 | 60 | 4 | 0.5 | -4.9 | 1007 | 1020 | 03099 10393 80604 10005 21049 30068 40199 7//// 8//// | |||
| 2013-04-03T10:00 | 8 | 50 | 4 | 0.8 | -5.1 | 1007 | 1020 | 03109 10393 80504 10008 21051 30066 40197 7//// 8//// | |||
| 2013-04-03T11:00 | 8 | 60 | 3 | 1.2 | -5.5 | 1006 | 1020 | 03119 10393 80603 10012 21055 30064 40195 7//// 8//// | |||
| 2013-04-03T12:00 | 8 | 50 | 3 | 1.2 | -5.0 | 1006 | 1019 | 03129 10393 80503 10012 21050 30061 40191 7//// 8//// | |||
| 2013-04-03T13:00 | 8 | 70 | 4 | 1.2 | -4.8 | 1006 | 1019 | 03139 10393 80704 10012 21048 30060 40190 7//// 8//// | |||
| 2013-04-03T14:00 | 8 | 70 | 5 | 1.2 | -4.4 | 1006 | 1019 | 03149 10393 80705 10012 21044 30058 40188 7//// 8//// | |||
| 2013-04-03T15:00 | 8 | 60 | 3 | 0.9 | -4.2 | 1006 | 1019 | 03159 10393 80603 10009 21042 30057 40188 7//// 8//// | |||
| 2013-04-03T16:00 | 8 | 40 | 3 | 1.0 | -4.1 | 1005 | 1018 | 03169 10393 80403 10010 21041 30053 40183 7//// 8//// | |||
| 2013-04-03T17:00 | 8 | 60 | 3 | 1.0 | -4.7 | 1005 | 1018 | 03179 10393 80603 10010 21047 30053 40183 7//// 8//// | |||
| 2013-04-03T18:00 | 8 | 70 | 3 | 1.1 | -5.1 | 1006 | 1018 | 03189 10393 80703 10011 21051 30055 40185 7//// 8//// | |||
| 2013-04-03T19:00 | 8 | 70 | 3 | 1.0 | -5.0 | 1006 | 1019 | 03199 10393 80703 10010 21050 30055 40186 7//// 8//// | |||
| 2013-04-03T20:00 | 8 | 60 | 3 | 0.9 | -4.9 | 1005 | 1018 | 03209 10393 80603 10009 21049 30052 40183 7//// 8//// | |||
| 2013-04-03T21:00 | 8 | 60 | 3 | 0.8 | -4.6 | 1005 | 1018 | 03219 10393 80603 10008 21046 30046 40176 7//// 8//// | |||
| 2013-04-03T22:00 | 8 | 60 | 3 | 0.7 | -4.5 | 1004 | 1017 | 03229 10393 80603 10007 21045 30043 40173 7//// 8//// | |||
| 2013-04-03T23:00 | 7 | 60 | 3 | 0.2 | -4.5 | 1004 | 1017 | 03239 10393 70603 10002 21045 30042 40173 7//// 8//// | |||
| 2013-04-04T00:00 | 6 | 60 | 3 | -0.1 | -4.4 | 1004 | 1017 | 04009 10393 60603 11001 21044 30040 40171 7//// 8//// | |||
| 2013-04-04T01:00 | 8 | 50 | 2 | -0.4 | -4.2 | 1004 | 1017 | 04019 10393 80502 11004 21042 30035 40166 7//// 8//// | |||
| 2013-04-04T02:00 | 8 | 10 | 2 | -0.5 | -3.7 | 1003 | 1016 | 04029 10393 80102 11005 21037 30031 40162 7//// 8//// | |||
| 2013-04-04T03:00 | 8 | 20 | 2 | -0.6 | -3.8 | 1003 | 1016 | 04039 10393 80202 11006 21038 30026 40157 7//// 8//// | |||
| 2013-04-04T04:00 | 8 | 30 | 2 | -0.5 | -4.2 | 1002 | 1015 | 04049 10393 80302 11005 21042 30023 40154 7//// 8//// | |||
| 2013-04-04T05:00 | 8 | 20 | 2 | -0.6 | -3.9 | 1002 | 1015 | 04059 10393 80202 11006 21039 30021 40152 7//// 8//// | |||
| 2013-04-04T06:00 | 8 | 20 | 2 | -0.5 | -3.8 | 1002 | 1015 | 04069 10393 80202 11005 21038 30021 40152 7//// 8//// | |||
| 2013-04-04T07:00 | 8 | 30 | 3 | -0.5 | -3.0 | 1002 | 1015 | 04079 10393 80303 11005 21030 30020 40151 7//// 8//// | |||
| 2013-04-04T08:00 | 8 | 20 | 2 | -0.1 | -2.9 | 1002 | 1015 | 04089 10393 80202 11001 21029 30019 40150 7//// 8//// | |||
| 2013-04-04T09:00 | 8 | 10 | 3 | 0.4 | -2.8 | 1002 | 1015 | 04099 10393 80103 10004 21028 30018 40148 7//// 8//// | |||
| 2013-04-04T10:00 | 8 | 10 | 2 | 0.7 | -2.8 | 1002 | 1015 | 04109 10393 80102 10007 21028 30017 40147 7//// 8//// | |||
| 2013-04-04T11:00 | 8 | 10 | 2 | 1.5 | -2.6 | 1002 | 1014 | 04119 10393 80102 10015 21026 30015 40145 7//// 8//// | |||
| 2013-04-04T12:00 | 7 | 360 | 2 | 2.1 | -2.8 | 1002 | 1014 | 04129 10393 73602 10021 21028 30015 40144 7//// 8//// | |||
| 2013-04-04T13:00 | 7 | 360 | 2 | 2.7 | -2.7 | 1001 | 1014 | 04139 10393 73602 10027 21027 30011 40140 7//// 8//// | |||
| 2013-04-04T14:00 | 8 | 10 | 2 | 2.8 | -2.3 | 1001 | 1014 | 04149 10393 80102 10028 21023 30008 40137 7//// 8//// | |||
| 2013-04-04T15:00 | 8 | 20 | 3 | 2.7 | -2.3 | 1000 | 1013 | 04159 10393 80203 10027 21023 30004 40133 7//// 8//// | |||
| 2013-04-04T16:00 | 8 | 40 | 1 | 2.7 | -2.3 | 1000 | 1013 | 04169 10393 80401 10027 21023 30003 40132 7//// 8//// | |||
| 2013-04-04T17:00 | 8 | 30 | 1 | 2.3 | -2.3 | 1000 | 1013 | 04179 10393 80301 10023 21023 30001 40130 7//// 8//// | |||
| 2013-04-04T18:00 | 8 | 30 | 1 | 1.8 | -1.9 | 1000 | 1013 | 04189 10393 80301 10018 21019 30002 40131 7//// 8//// | |||
| 2013-04-04T19:00 | 8 | 20 | 1 | 1.3 | -1.8 | 1000 | 1013 | 04199 10393 80201 10013 21018 30001 40131 7//// 8//// | |||
| 2013-04-04T20:00 | 8 | 10 | 1 | 1.0 | -1.5 | 1000 | 1013 | 04209 10393 80101 10010 21015 30000 40130 7//// 8//// | |||
| 2013-04-04T21:00 | 8 | 30 | 1 | 0.8 | -1.5 | 1000 | 1013 | 04219 10393 80301 10008 21015 39998 40128 7//// 8//// | |||
| 2013-04-04T22:00 | 8 | 30 | 1 | 0.4 | -1.6 | 1000 | 1013 | 04229 10393 80301 10004 21016 39997 40127 7//// 8//// | |||
| 2013-04-04T23:00 | 8 | 360 | 1 | 0.4 | -1.4 | 1000 | 1013 | 04239 10393 83601 10004 21014 39997 40127 7//// 8//// | |||
| 2013-04-05T00:00 | 8 | 10 | 2 | 0.2 | -1.4 | 999 | 1012 | 05009 10393 80102 10002 21014 39992 40122 7//// 8//// | |||
| 2013-04-05T01:00 | 8 | 10 | 2 | 0.1 | -1.3 | 998 | 1011 | 05019 10393 80102 10001 21013 39982 40112 7//// 8//// | |||
| 2013-04-05T02:00 | 8 | 10 | 2 | 0.0 | -1.3 | 998 | 1011 | 05029 10393 80102 10000 21013 39979 40109 7//// 8//// | |||
| 2013-04-05T03:00 | 8 | 20 | 2 | 0.0 | -1.1 | 998 | 1011 | 05039 10393 80202 10000 21011 39977 40107 7//// 8//// | |||
| 2013-04-05T04:00 | 8 | 10 | 2 | -0.1 | -1.1 | 997 | 1010 | 05049 10393 80102 11001 21011 39972 40102 7//// 8//// | |||
| 2013-04-05T05:00 | 8 | 20 | 2 | -0.1 | -1.0 | 997 | 1010 | 10 | 2 | 2 | 05059 10393 80202 11001 21010 39969 40099 71022 8//// |
| 2013-04-05T06:00 | 8 | 10 | 1 | 0.1 | -0.9 | 997 | 1010 | 10 | 2 | 2 | 05069 10393 80101 10001 21009 39971 40101 71022 8//// |
| 2013-04-05T07:00 | 8 | 20 | 1 | 0.4 | -0.9 | 997 | 1010 | 70 | 2 | 2 | 05079 10393 80201 10004 21009 39973 40103 77022 8//// |
| 2013-04-05T08:00 | 8 | 30 | 1 | 0.8 | -0.8 | 998 | 1010 | 70 | 7 | 7 | 05089 10393 80301 10008 21008 39975 40104 77077 8//// |
| 2013-04-05T09:00 | 8 | 360 | 1 | 1.4 | -0.4 | 997 | 1010 | 70 | 7 | 2 | 05099 10393 83601 10014 21004 39973 40102 77072 8//// |
| 2013-04-05T10:00 | 8 | 360 | 2 | 1.9 | -1.0 | 997 | 1010 | 22 | 2 | 2 | 05109 10393 83602 10019 21010 39973 40102 72222 8//// |
| 2013-04-05T11:00 | 8 | 360 | 2 | 2.3 | -1.1 | 997 | 1010 | 05119 10393 83602 10023 21011 39972 40101 7//// 8//// | |||
| 2013-04-05T12:00 | 8 | 360 | 2 | 2.7 | -1.1 | 997 | 1010 | 22 | 7 | 2 | 05129 10393 83602 10027 21011 39971 40100 72272 8//// |
| 2013-04-05T13:00 | 8 | 10 | 2 | 2.6 | -0.7 | 997 | 1010 | 05139 10393 80102 10026 21007 39971 40100 7//// 8//// | |||
| 2013-04-05T14:00 | 8 | 10 | 2 | 2.6 | -0.1 | 997 | 1010 | 70 | 7 | 2 | 05149 10393 80102 10026 21001 39970 40099 77072 8//// |
| 2013-04-05T15:00 | 8 | 360 | 2 | 2.2 | 0.6 | 997 | 1010 | 68 | 7 | 2 | 05159 10393 83602 10022 20006 39972 40101 76872 8//// |
| 2013-04-05T16:00 | 8 | 360 | 2 | 2.2 | 0.6 | 998 | 1010 | 68 | 7 | 7 | 05169 10393 83602 10022 20006 39975 40104 76877 8//// |
| 2013-04-05T17:00 | 8 | 350 | 2 | 2.0 | 0.4 | 998 | 1011 | 60 | 7 | 7 | 05179 10393 83502 10020 20004 39978 40107 76077 8//// |
| 2013-04-05T18:00 | 8 | 350 | 2 | 1.6 | 0.5 | 998 | 1011 | 60 | 7 | 6 | 05189 10393 83502 10016 20005 39983 40112 76076 8//// |
| 2013-04-05T19:00 | 8 | 360 | 2 | 1.4 | 0.5 | 999 | 1012 | 60 | 6 | 6 | 05199 10393 83602 10014 20005 39990 40119 76066 8//// |
| 2013-04-05T20:00 | 8 | 360 | 2 | 1.3 | 0.4 | 999 | 1012 | 21 | 6 | 6 | 05209 10393 83602 10013 20004 39993 40122 72166 8//// |
| 2013-04-05T21:00 | 8 | 10 | 2 | 1.2 | 0.2 | 1000 | 1013 | 21 | 6 | 2 | 05219 10393 80102 10012 20002 39997 40127 72162 8//// |
| 2013-04-05T22:00 | 8 | 10 | 2 | 0.9 | 0.0 | 1000 | 1013 | 60 | 6 | 2 | 05229 10393 80102 10009 20000 30000 40130 76062 8//// |
| 2013-04-05T23:00 | 8 | 360 | 2 | 0.7 | -0.1 | 1000 | 1013 | 21 | 6 | 6 | 05239 10393 83602 10007 21001 30002 40132 72166 8//// |
| 2013-04-06T00:00 | 8 | 360 | 2 | 0.6 | -0.2 | 1000 | 1013 | 60 | 6 | 2 | 06009 10393 83602 10006 21002 30004 40134 76062 8//// |
| 2013-04-06T01:00 | 8 | 360 | 2 | 0.4 | -0.3 | 1001 | 1014 | 60 | 6 | 6 | 06019 10393 83602 10004 21003 30006 40136 76066 8//// |
| 2013-04-06T02:00 | 8 | 360 | 2 | 0.3 | -0.4 | 1001 | 1014 | 21 | 6 | 6 | 06029 10393 83602 10003 21004 30008 40138 72166 8//// |
| 2013-04-06T03:00 | 8 | 360 | 2 | 0.3 | -0.5 | 1001 | 1014 | 21 | 6 | 2 | 06039 10393 83602 10003 21005 30009 40139 72162 8//// |
| 2013-04-06T04:00 | 8 | 10 | 2 | 0.3 | -0.4 | 1001 | 1014 | 21 | 2 | 2 | 06049 10393 80102 10003 21004 30012 40142 72122 8//// |
| 2013-04-06T05:00 | 8 | 10 | 2 | 0.2 | -0.4 | 1002 | 1015 | 10 | 2 | 2 | 06059 10393 80102 10002 21004 30018 40148 71022 8//// |
| 2013-04-06T06:00 | 8 | 10 | 2 | 0.3 | -0.7 | 1002 | 1015 | 60 | 6 | 2 | 06069 10393 80102 10003 21007 30023 40153 76062 8//// |
| 2013-04-06T07:00 | 8 | 360 | 2 | 0.6 | -0.6 | 1003 | 1016 | 21 | 6 | 6 | 06079 10393 83602 10006 21006 30031 40161 72166 8//// |
| 2013-04-06T08:00 | 8 | 360 | 2 | 1.1 | -0.8 | 1004 | 1016 | 21 | 2 | 2 | 06089 10393 83602 10011 21008 30035 40165 72122 8//// |
| 2013-04-06T09:00 | 8 | 360 | 2 | 1.5 | -1.1 | 1004 | 1017 | 21 | 6 | 2 | 06099 10393 83602 10015 21011 30040 40170 72162 8//// |
| 2013-04-06T10:00 | 8 | 360 | 2 | 2.1 | -0.8 | 1004 | 1017 | 21 | 2 | 2 | 06109 10393 83602 10021 21008 30044 40174 72122 8//// |
| 2013-04-06T11:00 | 8 | 350 | 2 | 2.7 | -1.0 | 1005 | 1018 | 06119 10393 83502 10027 21010 30048 40178 7//// 8//// | |||
| 2013-04-06T12:00 | 8 | 360 | 2 | 3.2 | -1.4 | 1005 | 1018 | 2 | 6 | 2 | 06129 10393 83602 10032 21014 30050 40179 70262 8//// |
| 2013-04-06T13:00 | 8 | 360 | 2 | 3.5 | -1.8 | 1005 | 1018 | 06139 10393 83602 10035 21018 30052 40181 7//// 8//// | |||
| 2013-04-06T14:00 | 8 | 330 | 2 | 3.7 | -1.4 | 1005 | 1018 | 06149 10393 83302 10037 21014 30051 40180 7//// 8//// | |||
| 2013-04-06T15:00 | 8 | 350 | 2 | 3.6 | -1.1 | 1005 | 1018 | 70 | 2 | 2 | 06159 10393 83502 10036 21011 30052 40181 77022 8//// |
| 2013-04-06T16:00 | 8 | 310 | 1 | 3.9 | -1.1 | 1005 | 1018 | 22 | 2 | 2 | 06169 10393 83101 10039 21011 30054 40183 72222 8//// |
| 2013-04-06T17:00 | 8 | 320 | 2 | 3.4 | -0.7 | 1006 | 1018 | 21 | 6 | 2 | 06179 10393 83202 10034 21007 30056 40185 72162 8//// |
| 2013-04-06T18:00 | 8 | 270 | 2 | 2.8 | -0.9 | 1006 | 1019 | 21 | 7 | 6 | 06189 10393 82702 10028 21009 30061 40191 72176 8//// |
| 2013-04-06T19:00 | 8 | 280 | 3 | 2.6 | -1.2 | 1007 | 1020 | 21 | 2 | 2 | 06199 10393 82803 10026 21012 30069 40199 72122 8//// |
| 2013-04-06T20:00 | 8 | 240 | 2 | 2.5 | -1.4 | 1007 | 1020 | 21 | 2 | 2 | 06209 10393 82402 10025 21014 30073 40203 72122 8//// |
| 2013-04-06T21:00 | 6 | 290 | 2 | 1.5 | -1.2 | 1008 | 1021 | 21 | 6 | 2 | 06219 10393 62902 10015 21012 30077 40207 72162 8//// |
| 2013-04-06T22:00 | 4 | 290 | 2 | 0.8 | -1.1 | 1008 | 1021 | 06229 10393 42902 10008 21011 30079 40210 7//// 8//// | |||
| 2013-04-06T23:00 | 3 | 290 | 3 | -0.1 | -1.3 | 1008 | 1021 | 06239 10393 32903 11001 21013 30079 40210 7//// 8//// | |||
| 2013-04-07T00:00 | 1 | 290 | 3 | -0.8 | -1.6 | 1008 | 1021 | 1 | 6 | 1 | 07009 10393 12903 11008 21016 30079 40211 70161 8//// |
| 2013-04-07T01:00 | 1 | 300 | 3 | -1.3 | -1.8 | 1008 | 1021 | 07019 10393 13003 11013 21018 30078 40210 7//// 8//// | |||
| 2013-04-07T02:00 | 0 | 320 | 2 | -2.2 | -2.2 | 1008 | 1021 | 10 | 0 | 0 | 07029 10393 03202 11022 21022 30079 40211 71000 8//// |
| 2013-04-07T03:00 | 0 | 310 | 2 | -2.7 | -3.0 | 1008 | 1021 | 10 | 0 | 0 | 07039 10393 03102 11027 21030 30078 40211 71000 8//// |
| 2013-04-07T04:00 | 1 | 320 | 2 | -2.6 | -2.8 | 1008 | 1021 | 11 | 0 | 0 | 07049 10393 13202 11026 21028 30079 40212 71100 8//// |
| 2013-04-07T05:00 | 1 | 300 | 3 | -3.0 | -3.3 | 1008 | 1021 | 11 | 0 | 0 | 07059 10393 13003 11030 21033 30080 40213 71100 8//// |
| 2013-04-07T06:00 | 1 | 310 | 2 | -2.3 | -2.3 | 1008 | 1022 | 10 | 0 | 0 | 07069 10393 13102 11023 21023 30083 40215 71000 8//// |
| 2013-04-07T07:00 | 0 | 290 | 2 | 0.4 | -2.9 | 1008 | 1022 | 07079 10393 02902 10004 21029 30084 40215 7//// 8//// | |||
| 2013-04-07T08:00 | 1 | 290 | 2 | 3.0 | -3.8 | 1008 | 1021 | 07089 10393 12902 10030 21038 30084 40214 7//// 8//// | |||
| 2013-04-07T09:00 | 1 | 290 | 4 | 5.1 | -5.3 | 1008 | 1021 | 07099 10393 12904 10051 21053 30084 40213 7//// 8//// | |||
| 2013-04-07T10:00 | 1 | 290 | 3 | 6.6 | -4.4 | 1008 | 1021 | 07109 10393 12903 10066 21044 30081 40209 7//// 8//// | |||
| 2013-04-07T11:00 | 3 | 290 | 4 | 6.8 | -5.1 | 1008 | 1020 | 07119 10393 32904 10068 21051 30075 40203 7//// 8//// | |||
| 2013-04-07T12:00 | 2 | 290 | 2 | 7.6 | -6.3 | 1007 | 1020 | 07129 10393 22902 10076 21063 30068 40196 7//// 8//// | |||
| 2013-04-07T13:00 | 2 | 280 | 4 | 8.4 | -6.0 | 1006 | 1019 | 07139 10393 22804 10084 21060 30063 40190 7//// 8//// | |||
| 2013-04-07T14:00 | 2 | 290 | 4 | 8.5 | -7.9 | 1006 | 1018 | 07149 10393 22904 10085 21079 30056 40183 7//// 8//// | |||
| 2013-04-07T15:00 | 4 | 260 | 4 | 8.4 | -5.8 | 1005 | 1018 | 07159 10393 42604 10084 21058 30053 40180 7//// 8//// | |||
| 2013-04-07T16:00 | 7 | 310 | 2 | 7.8 | -5.3 | 1005 | 1018 | 14 | 1 | 1 | 07169 10393 73102 10078 21053 30051 40178 71411 8//// |
| 2013-04-07T17:00 | 6 | 30 | 1 | 7.0 | -4.6 | 1005 | 1018 | 25 | 2 | 2 | 07179 10393 60301 10070 21046 30049 40177 72522 8//// |
| 2013-04-07T18:00 | 6 | 10 | 1 | 5.7 | -4.0 | 1005 | 1018 | 1 | 8 | 1 | 07189 10393 60101 10057 21040 30047 40175 70181 8//// |
| 2013-04-07T19:00 | 5 | 40 | 1 | 4.2 | -4.6 | 1005 | 1018 | 07199 10393 50401 10042 21046 30046 40175 7//// 8//// | |||
| 2013-04-07T20:00 | 7 | 190 | 1 | 3.8 | -4.2 | 1004 | 1017 | 07209 10393 71901 10038 21042 30044 40173 7//// 8//// | |||
| 2013-04-07T21:00 | 6 | 240 | 1 | 3.2 | -4.0 | 1004 | 1017 | 07219 10393 62401 10032 21040 30040 40169 7//// 8//// | |||
| 2013-04-07T22:00 | 0 | 240 | 3 | 2.0 | -3.7 | 1004 | 1017 | 07229 10393 02403 10020 21037 30036 40166 7//// 8//// | |||
| 2013-04-07T23:00 | 0 | 230 | 2 | 1.3 | -4.2 | 1003 | 1016 | 07239 10393 02302 10013 21042 30034 40164 7//// 8//// | |||
| 2013-04-08T00:00 | 0 | 230 | 2 | 0.5 | -3.9 | 1003 | 1016 | 08009 10393 02302 10005 21039 30029 40159 7//// 8//// | |||
| 2013-04-08T01:00 | 0 | 240 | 3 | -0.3 | -3.8 | 1003 | 1016 | 08019 10393 02403 11003 21038 30026 40157 7//// 8//// | |||
| 2013-04-08T02:00 | 0 | 250 | 3 | -0.2 | -3.9 | 1002 | 1015 | 08029 10393 02503 11002 21039 30020 40151 7//// 8//// | |||
| 2013-04-08T03:00 | 0 | 230 | 2 | -0.9 | -4.1 | 1002 | 1015 | 08039 10393 02302 11009 21041 30016 40147 7//// 8//// | |||
| 2013-04-08T04:00 | 2 | 220 | 2 | -1.1 | -4.3 | 1001 | 1014 | 08049 10393 22202 11011 21043 30010 40141 7//// 8//// | |||
| 2013-04-08T05:00 | 6 | 220 | 2 | -2.3 | -4.4 | 1001 | 1014 | 08059 10393 62202 11023 21044 30007 40138 7//// 8//// | |||
| 2013-04-08T06:00 | 7 | 200 | 1 | 0.0 | -3.7 | 1001 | 1014 | 08069 10393 72001 10000 21037 30006 40136 7//// 8//// | |||
| 2013-04-08T07:00 | 7 | 180 | 1 | 1.6 | -2.4 | 1000 | 1014 | 08079 10393 71801 10016 21024 30005 40135 7//// 8//// | |||
| 2013-04-08T08:00 | 6 | 210 | 1 | 4.4 | -2.9 | 1000 | 1013 | 08089 10393 62101 10044 21029 30002 40130 7//// 8//// | |||
| 2013-04-08T09:00 | 5 | 300 | 2 | 6.6 | -3.6 | 1000 | 1013 | 08099 10393 53002 10066 21036 30002 40129 7//// 8//// | |||
| 2013-04-08T10:00 | 6 | 130 | 3 | 7.5 | -5.0 | 1000 | 1012 | 08109 10393 61303 10075 21050 39997 40124 7//// 8//// | |||
| 2013-04-08T11:00 | 7 | 150 | 3 | 7.7 | -5.4 | 999 | 1012 | 08119 10393 71503 10077 21054 39993 40120 7//// 8//// | |||
| 2013-04-08T12:00 | 8 | 100 | 1 | 8.3 | -6.1 | 999 | 1011 | 08129 10393 81001 10083 21061 39987 40113 7//// 8//// | |||
| 2013-04-08T13:00 | 8 | 150 | 2 | 8.8 | -6.3 | 998 | 1011 | 08139 10393 81502 10088 21063 39982 40108 7//// 8//// | |||
| 2013-04-08T14:00 | 7 | 100 | 2 | 8.6 | -6.5 | 998 | 1010 | 08149 10393 71002 10086 21065 39978 40104 7//// 8//// | |||
| 2013-04-08T15:00 | 8 | 60 | 3 | 8.2 | -4.5 | 997 | 1010 | 08159 10393 80603 10082 21045 39971 40097 7//// 8//// | |||
| 2013-04-08T16:00 | 5 | 70 | 4 | 8.1 | -3.0 | 997 | 1009 | 08169 10393 50704 10081 21030 39966 40092 7//// 8//// | |||
| 2013-04-08T17:00 | 6 | 70 | 4 | 7.3 | -3.2 | 996 | 1009 | 08179 10393 60704 10073 21032 39965 40091 7//// 8//// | |||
| 2013-04-08T18:00 | 5 | 60 | 4 | 5.6 | -1.5 | 997 | 1009 | 08189 10393 50604 10056 21015 39966 40093 7//// 8//// | |||
| 2013-04-08T19:00 | 7 | 60 | 4 | 4.6 | -1.6 | 997 | 1010 | 08199 10393 70604 10046 21016 39967 40095 7//// 8//// | |||
| 2013-04-08T20:00 | 7 | 80 | 4 | 4.0 | -1.9 | 997 | 1010 | 08209 10393 70804 10040 21019 39968 40096 7//// 8//// | |||
| 2013-04-08T21:00 | 7 | 90 | 4 | 3.5 | -1.7 | 997 | 1010 | 08219 10393 70904 10035 21017 39970 40098 7//// 8//// | |||
| 2013-04-08T22:00 | 8 | 90 | 4 | 3.1 | -1.4 | 997 | 1010 | 08229 10393 80904 10031 21014 39969 40097 7//// 8//// | |||
| 2013-04-08T23:00 | 7 | 90 | 4 | 2.7 | -1.3 | 996 | 1009 | 08239 10393 70904 10027 21013 39965 40093 7//// 8//// | |||
| 2013-04-09T00:00 | 7 | 90 | 4 | 2.3 | -1.3 | 996 | 1009 | 09009 10393 70904 10023 21013 39961 40090 7//// 8//// | |||
| 2013-04-09T01:00 | 8 | 90 | 4 | 2.0 | -1.7 | 996 | 1008 | 09019 10393 80904 10020 21017 39956 40085 7//// 8//// | |||
| 2013-04-09T02:00 | 7 | 90 | 4 | 1.8 | -1.9 | 995 | 1008 | 09029 10393 70904 10018 21019 39954 40083 7//// 8//// | |||
| 2013-04-09T03:00 | 7 | 70 | 3 | 1.6 | -1.8 | 995 | 1008 | 09039 10393 70703 10016 21018 39951 40080 7//// 8//// | |||
| 2013-04-09T04:00 | 8 | 80 | 4 | 1.3 | -1.9 | 995 | 1008 | 09049 10393 80804 10013 21019 39950 40079 7//// 8//// | |||
| 2013-04-09T05:00 | 8 | 90 | 4 | 1.1 | -1.8 | 995 | 1008 | 09059 10393 80904 10011 21018 39950 40079 7//// 8//// | |||
| 2013-04-09T06:00 | 7 | 100 | 3 | 1.4 | -1.5 | 995 | 1008 | 09069 10393 71003 10014 21015 39953 40082 7//// 8//// | |||
| 2013-04-09T07:00 | 7 | 100 | 3 | 2.2 | -1.5 | 995 | 1008 | 09079 10393 71003 10022 21015 39954 40083 7//// 8//// | |||
| 2013-04-09T08:00 | 7 | 100 | 4 | 3.8 | -1.6 | 995 | 1008 | 09089 10393 71004 10038 21016 39952 40080 7//// 8//// | |||
| 2013-04-09T09:00 | 7 | 110 | 5 | 4.4 | -1.8 | 995 | 1008 | 09099 10393 71105 10044 21018 39951 40079 7//// 8//// | |||
| 2013-04-09T10:00 | 6 | 110 | 5 | 4.8 | -1.4 | 995 | 1008 | 09109 10393 61105 10048 21014 39948 40075 7//// 8//// | |||
| 2013-04-09T11:00 | 6 | 110 | 5 | 5.9 | -0.6 | 994 | 1007 | 09119 10393 61105 10059 21006 39944 40071 7//// 8//// | |||
| 2013-04-09T12:00 | 6 | 110 | 5 | 6.0 | -0.3 | 994 | 1007 | 09129 10393 61105 10060 21003 39943 40070 7//// 8//// | |||
| 2013-04-09T13:00 | 6 | 100 | 5 | 6.5 | 0.2 | 994 | 1006 | 09139 10393 61005 10065 20002 39938 40064 7//// 8//// | |||
| 2013-04-09T14:00 | 7 | 100 | 5 | 6.2 | 0.4 | 994 | 1006 | 5 | 2 | 2 | 09149 10393 71005 10062 20004 39935 40061 70522 8//// |
| 2013-04-09T15:00 | 7 | 100 | 5 | 5.7 | 0.4 | 993 | 1006 | 5 | 2 | 2 | 09159 10393 71005 10057 20004 39933 40060 70522 8//// |
| 2013-04-09T16:00 | 8 | 100 | 5 | 5.4 | 0.7 | 994 | 1006 | 5 | 2 | 2 | 09169 10393 81005 10054 20007 39935 40062 70522 8//// |
| 2013-04-09T17:00 | 8 | 100 | 5 | 4.3 | 0.4 | 994 | 1006 | 5 | 2 | 2 | 09179 10393 81005 10043 20004 39935 40062 70522 8//// |
| 2013-04-09T18:00 | 8 | 100 | 4 | 3.6 | 0.8 | 994 | 1006 | 10 | 2 | 2 | 09189 10393 81004 10036 20008 39936 40064 71022 8//// |
| 2013-04-09T19:00 | 8 | 100 | 5 | 3.5 | 0.9 | 994 | 1007 | 10 | 2 | 2 | 09199 10393 81005 10035 20009 39939 40067 71022 8//// |
| 2013-04-09T20:00 | 8 | 100 | 5 | 3.4 | 1.1 | 994 | 1007 | 10 | 2 | 2 | 09209 10393 81005 10034 20011 39938 40066 71022 8//// |
| 2013-04-09T21:00 | 8 | 110 | 4 | 3.4 | 1.2 | 994 | 1006 | 10 | 2 | 2 | 09219 10393 81104 10034 20012 39936 40064 71022 8//// |
| 2013-04-09T22:00 | 8 | 110 | 5 | 3.0 | 1.1 | 993 | 1006 | 10 | 2 | 2 | 09229 10393 81105 10030 20011 39934 40062 71022 8//// |
| 2013-04-09T23:00 | 8 | 110 | 4 | 3.3 | 1.4 | 993 | 1006 | 10 | 2 | 2 | 09239 10393 81104 10033 20014 39933 40061 71022 8//// |
| 2013-04-10T00:00 | 8 | 110 | 4 | 3.0 | 1.2 | 993 | 1006 | 10 | 2 | 2 | 10009 10393 81104 10030 20012 39929 40057 71022 8//// |
| 2013-04-10T01:00 | 8 | 100 | 4 | 3.0 | 1.3 | 992 | 1005 | 10 | 2 | 2 | 10019 10393 81004 10030 20013 39925 40053 71022 8//// |
| 2013-04-10T02:00 | 8 | 100 | 3 | 2.5 | 1.1 | 992 | 1005 | 10 | 2 | 2 | 10029 10393 81003 10025 20011 39925 40053 71022 8//// |
| 2013-04-10T03:00 | 8 | 90 | 3 | 2.6 | 1.2 | 992 | 1005 | 10 | 2 | 2 | 10039 10393 80903 10026 20012 39924 40052 71022 8//// |
| 2013-04-10T04:00 | 8 | 100 | 3 | 2.8 | 1.4 | 992 | 1005 | 10 | 2 | 2 | 10049 10393 81003 10028 20014 39925 40053 71022 8//// |
| 2013-04-10T05:00 | 8 | 100 | 3 | 2.8 | 1.4 | 993 | 1006 | 10 | 2 | 2 | 10059 10393 81003 10028 20014 39929 40057 71022 8//// |
| 2013-04-10T06:00 | 8 | 90 | 3 | 3.1 | 1.4 | 993 | 1006 | 10 | 2 | 2 | 10069 10393 80903 10031 20014 39930 40058 71022 8//// |
| 2013-04-10T07:00 | 8 | 100 | 4 | 3.5 | 1.5 | 993 | 1006 | 10 | 2 | 2 | 10079 10393 81004 10035 20015 39933 40061 71022 8//// |
| 2013-04-10T08:00 | 8 | 110 | 4 | 3.7 | 1.5 | 994 | 1006 | 10 | 2 | 2 | 10089 10393 81104 10037 20015 39937 40065 71022 8//// |
| 2013-04-10T09:00 | 8 | 100 | 3 | 4.0 | 1.5 | 994 | 1007 | 10 | 2 | 2 | 10099 10393 81003 10040 20015 39941 40068 71022 8//// |
| 2013-04-10T10:00 | 8 | 110 | 3 | 4.7 | 1.7 | 994 | 1007 | 10 | 2 | 2 | 10109 10393 81103 10047 20017 39942 40069 71022 8//// |
| 2013-04-10T11:00 | 8 | 110 | 3 | 5.6 | 2.4 | 994 | 1007 | 5 | 2 | 2 | 10119 10393 81103 10056 20024 39942 40069 70522 8//// |
| 2013-04-10T12:00 | 8 | 120 | 4 | 6.5 | 2.7 | 994 | 1007 | 5 | 2 | 2 | 10129 10393 81204 10065 20027 39944 40070 70522 8//// |
| 2013-04-10T13:00 | 8 | 110 | 3 | 6.5 | 2.8 | 995 | 1007 | 5 | 2 | 2 | 10139 10393 81103 10065 20028 39946 40072 70522 8//// |
| 2013-04-10T14:00 | 8 | 110 | 4 | 6.9 | 2.6 | 994 | 1007 | 5 | 2 | 2 | 10149 10393 81104 10069 20026 39945 40071 70522 8//// |
| 2013-04-10T15:00 | 8 | 110 | 3 | 6.8 | 2.8 | 995 | 1007 | 5 | 2 | 2 | 10159 10393 81103 10068 20028 39947 40073 70522 8//// |
| 2013-04-10T16:00 | 8 | 110 | 3 | 6.9 | 3.4 | 995 | 1007 | 60 | 6 | 2 | 10169 10393 81103 10069 20034 39948 40074 76062 8//// |
| 2013-04-10T17:00 | 8 | 120 | 3 | 6.5 | 3.4 | 995 | 1008 | 60 | 6 | 6 | 10179 10393 81203 10065 20034 39951 40077 76066 8//// |
| 2013-04-10T18:00 | 7 | 120 | 3 | 5.7 | 3.4 | 995 | 1008 | 60 | 6 | 2 | 10189 10393 71203 10057 20034 39953 40080 76062 8//// |
| 2013-04-10T19:00 | 8 | 110 | 3 | 5.3 | 3.4 | 996 | 1008 | 21 | 2 | 2 | 10199 10393 81103 10053 20034 39956 40083 72122 8//// |
| 2013-04-10T20:00 | 8 | 110 | 4 | 4.9 | 3.4 | 996 | 1008 | 61 | 6 | 2 | 10209 10393 81104 10049 20034 39956 40083 76162 8//// |
| 2013-04-10T21:00 | 8 | 110 | 3 | 4.7 | 3.4 | 996 | 1008 | 60 | 6 | 2 | 10219 10393 81103 10047 20034 39956 40083 76062 8//// |
| 2013-04-10T22:00 | 8 | 110 | 3 | 4.7 | 3.6 | 995 | 1008 | 21 | 2 | 2 | 10229 10393 81103 10047 20036 39954 40081 72122 8//// |
| 2013-04-10T23:00 | 8 | 120 | 3 | 4.6 | 3.7 | 995 | 1008 | 21 | 2 | 2 | 10239 10393 81203 10046 20037 39952 40079 72122 8//// |
| 2013-04-11T00:00 | 8 | 130 | 3 | 4.5 | 3.8 | 995 | 1008 | 10 | 6 | 2 | 11009 10393 81303 10045 20038 39949 40076 71062 8//// |
| 2013-04-11T01:00 | 8 | 140 | 2 | 4.5 | 3.9 | 994 | 1007 | 10 | 2 | 2 | 11019 10393 81402 10045 20039 39945 40072 71022 8//// |
| 2013-04-11T02:00 | 8 | 170 | 2 | 4.9 | 4.5 | 994 | 1007 | 21 | 2 | 2 | 11029 10393 81702 10049 20045 39943 40070 72122 8//// |
| 2013-04-11T03:00 | 7 | 190 | 2 | 5.2 | 4.7 | 994 | 1007 | 21 | 6 | 2 | 11039 10393 71902 10052 20047 39941 40068 72162 8//// |
| 2013-04-11T04:00 | 4 | 200 | 3 | 4.7 | 4.2 | 994 | 1007 | 10 | 1 | 1 | 11049 10393 42003 10047 20042 39940 40067 71011 8//// |
| 2013-04-11T05:00 | 5 | 180 | 2 | 4.5 | 4.5 | 994 | 1006 | 10 | 1 | 1 | 11059 10393 51802 10045 20045 39938 40065 71011 8//// |
| 2013-04-11T06:00 | 6 | 160 | 2 | 4.5 | 4.5 | 994 | 1006 | 28 | 6 | 1 | 11069 10393 61602 10045 20045 39936 40063 72861 8//// |
| 2013-04-11T07:00 | 7 | 170 | 2 | 6.6 | 5.4 | 993 | 1006 | 10 | 2 | 2 | 11079 10393 71702 10066 20054 39933 40059 71022 8//// |
| 2013-04-11T08:00 | 7 | 170 | 2 | 8.1 | 5.8 | 993 | 1006 | 10 | 2 | 2 | 11089 10393 71702 10081 20058 39930 40055 71022 8//// |
| 2013-04-11T09:00 | 8 | 160 | 3 | 9.4 | 5.7 | 992 | 1005 | 5 | 2 | 2 | 11099 10393 81603 10094 20057 39925 40050 70522 8//// |
| 2013-04-11T10:00 | 8 | 160 | 3 | 9.8 | 6.0 | 992 | 1004 | 61 | 6 | 2 | 11109 10393 81603 10098 20060 39921 40045 76162 8//// |
| 2013-04-11T11:00 | 8 | 160 | 4 | 9.8 | 6.5 | 991 | 1003 | 61 | 6 | 6 | 11119 10393 81604 10098 20065 39910 40034 76166 8//// |
| 2013-04-11T12:00 | 8 | 170 | 4 | 10.0 | 6.9 | 990 | 1003 | 60 | 6 | 2 | 11129 10393 81704 10100 20069 39904 40028 76062 8//// |
| 2013-04-11T13:00 | 8 | 150 | 4 | 9.4 | 8.1 | 990 | 1002 | 21 | 6 | 6 | 11139 10393 81504 10094 20081 39898 40022 72166 8//// |
| 2013-04-11T14:00 | 8 | 160 | 4 | 10.2 | 8.0 | 989 | 1002 | 11149 10393 81604 10102 20080 39892 40016 7//// 8//// | |||
| 2013-04-11T15:00 | 5 | 160 | 4 | 11.9 | 8.6 | 989 | 1001 | 25 | 6 | 2 | 11159 10393 51604 10119 20086 39886 40009 72562 8//// |
| 2013-04-11T16:00 | 7 | 160 | 2 | 12.0 | 9.0 | 988 | 1001 | 25 | 2 | 2 | 11169 10393 71602 10120 20090 39883 40006 72522 8//// |
| 2013-04-11T17:00 | 5 | 170 | 3 | 13.1 | 8.7 | 988 | 1000 | 25 | 2 | 2 | 11179 10393 51703 10131 20087 39879 40001 72522 8//// |
| 2013-04-11T18:00 | 6 | 160 | 2 | 11.6 | 8.2 | 988 | 1000 | 3 | 8 | 6 | 11189 10393 61602 10116 20082 39877 40000 70386 8//// |
| 2013-04-11T19:00 | 6 | 180 | 3 | 10.9 | 9.0 | 988 | 1001 | 25 | 2 | 2 | 11199 10393 61803 10109 20090 39883 40006 72522 8//// |
| 2013-04-11T20:00 | 7 | 160 | 2 | 9.9 | 9.0 | 988 | 1001 | 11209 10393 71602 10099 20090 39883 40007 7//// 8//// | |||
| 2013-04-11T21:00 | 8 | 160 | 3 | 9.7 | 9.0 | 988 | 1000 | 60 | 8 | 2 | 11219 10393 81603 10097 20090 39879 40003 76082 8//// |
| 2013-04-11T22:00 | 7 | 150 | 3 | 9.2 | 8.3 | 988 | 1000 | 21 | 2 | 2 | 11229 10393 71503 10092 20083 39878 40002 72122 8//// |
| 2013-04-11T23:00 | 6 | 150 | 3 | 8.9 | 8.1 | 988 | 1000 | 11239 10393 61503 10089 20081 39875 49999 7//// 8//// | |||
| 2013-04-12T00:00 | 6 | 150 | 3 | 8.2 | 7.5 | 987 | 999 | 3 | 8 | 6 | 12009 10393 61503 10082 20075 39869 49993 70386 8//// |
| 2013-04-12T01:00 | 7 | 140 | 3 | 8.0 | 7.4 | 986 | 999 | 12019 10393 71403 10080 20074 39864 49989 7//// 8//// | |||
| 2013-04-12T02:00 | 8 | 150 | 3 | 8.3 | 7.7 | 986 | 998 | 61 | 2 | 2 | 12029 10393 81503 10083 20077 39861 49985 76122 8//// |
| 2013-04-12T03:00 | 8 | 160 | 3 | 8.4 | 7.9 | 986 | 998 | 61 | 6 | 2 | 12039 10393 81603 10084 20079 39859 49983 76162 8//// |
| 2013-04-12T04:00 | 8 | 150 | 3 | 8.8 | 8.5 | 985 | 998 | 65 | 6 | 6 | 12049 10393 81503 10088 20085 39852 49976 76566 8//// |
| 2013-04-12T05:00 | 9 | 170 | 2 | 9.2 | 9.1 | 985 | 997 | 63 | 6 | 4 | 12059 10393 91702 10092 20091 39850 49974 76364 8//// |
| 2013-04-12T06:00 | 9 | 210 | 3 | 10.0 | 9.9 | 985 | 997 | 61 | 6 | 4 | 12069 10393 92103 10100 20099 39850 49973 76164 8//// |
| 2013-04-12T07:00 | 9 | 240 | 3 | 10.3 | 10.2 | 985 | 997 | 63 | 6 | 4 | 12079 10393 92403 10103 20102 39851 49974 76364 8//// |
| 2013-04-12T08:00 | 8 | 300 | 4 | 9.8 | 9.6 | 986 | 998 | 61 | 6 | 4 | 12089 10393 83004 10098 20096 39857 49981 76164 8//// |
| 2013-04-12T09:00 | 8 | 290 | 3 | 9.5 | 9.5 | 987 | 999 | 63 | 6 | 4 | 12099 10393 82903 10095 20095 39868 49992 76364 8//// |
| 2013-04-12T10:00 | 8 | 270 | 4 | 9.9 | 9.4 | 988 | 1000 | 63 | 6 | 6 | 12109 10393 82704 10099 20094 39880 40004 76366 8//// |
| 2013-04-12T11:00 | 8 | 280 | 4 | 9.7 | 8.8 | 989 | 1002 | 61 | 6 | 6 | 12119 10393 82804 10097 20088 39892 40016 76166 8//// |
| 2013-04-12T12:00 | 8 | 270 | 6 | 10.3 | 8.7 | 990 | 1002 | 21 | 6 | 4 | 12129 10393 82706 10103 20087 39897 40021 72164 8//// |
| 2013-04-12T13:00 | 8 | 270 | 6 | 10.4 | 7.6 | 990 | 1003 | 60 | 2 | 2 | 12139 10393 82706 10104 20076 39903 40027 76022 8//// |
| 2013-04-12T14:00 | 7 | 270 | 8 | 11.3 | 5.9 | 991 | 1003 | 21 | 2 | 2 | 12149 10393 72708 10113 20059 39906 40030 72122 8//// |
| 2013-04-12T15:00 | 6 | 260 | 5 | 12.2 | 6.6 | 991 | 1004 | 3 | 6 | 2 | 12159 10393 62605 10122 20066 39913 40036 70362 8//// |
| 2013-04-12T16:00 | 6 | 250 | 5 | 11.9 | 5.9 | 992 | 1004 | 12169 10393 62505 10119 20059 39916 40039 7//// 8//// | |||
| 2013-04-12T17:00 | 6 | 240 | 5 | 11.8 | 5.8 | 992 | 1004 | 12179 10393 62405 10118 20058 39917 40041 7//// 8//// | |||
| 2013-04-12T18:00 | 5 | 220 | 3 | 11.0 | 6.2 | 992 | 1004 | 1 | 6 | 2 | 12189 10393 52203 10110 20062 39920 40044 70162 8//// |
| 2013-04-12T19:00 | 3 | 200 | 3 | 10.1 | 6.5 | 993 | 1005 | 12199 10393 32003 10101 20065 39928 40052 7//// 8//// | |||
| 2013-04-12T20:00 | 2 | 210 | 4 | 9.5 | 6.4 | 993 | 1006 | 12209 10393 22104 10095 20064 39931 40056 7//// 8//// | |||
| 2013-04-12T21:00 | 6 | 190 | 3 | 8.9 | 6.0 | 993 | 1006 | 12219 10393 61903 10089 20060 39932 40057 7//// 8//// | |||
| 2013-04-12T22:00 | 7 | 170 | 3 | 8.0 | 5.9 | 993 | 1006 | 12229 10393 71703 10080 20059 39933 40058 7//// 8//// | |||
| 2013-04-12T23:00 | 7 | 200 | 3 | 8.4 | 5.6 | 994 | 1006 | 12239 10393 72003 10084 20056 39936 40061 7//// 8//// | |||
| 2013-04-13T00:00 | 0 | 210 | 5 | 8.7 | 5.2 | 994 | 1006 | 13009 10393 02105 10087 20052 39937 40062 7//// 8//// | |||
| 2013-04-13T01:00 | 0 | 220 | 5 | 8.0 | 4.9 | 994 | 1007 | 13019 10393 02205 10080 20049 39943 40069 7//// 8//// | |||
| 2013-04-13T02:00 | 0 | 220 | 5 | 7.3 | 4.5 | 995 | 1008 | 13029 10393 02205 10073 20045 39950 40076 7//// 8//// | |||
| 2013-04-13T03:00 | 3 | 220 | 3 | 6.6 | 4.4 | 995 | 1008 | 13039 10393 32203 10066 20044 39954 40080 7//// 8//// | |||
| 2013-04-13T04:00 | 6 | 230 | 5 | 7.2 | 4.7 | 996 | 1008 | 13049 10393 62305 10072 20047 39959 40085 7//// 8//// | |||
| 2013-04-13T05:00 | 7 | 230 | 4 | 7.2 | 4.9 | 997 | 1009 | 13059 10393 72304 10072 20049 39966 40092 7//// 8//// | |||
| 2013-04-13T06:00 | 7 | 210 | 3 | 8.0 | 5.3 | 997 | 1010 | 13069 10393 72103 10080 20053 39974 40100 7//// 8//// | |||
| 2013-04-13T07:00 | 8 | 230 | 6 | 8.8 | 5.7 | 998 | 1011 | 21 | 2 | 2 | 13079 10393 82306 10088 20057 39981 40107 72122 8//// |
| 2013-04-13T08:00 | 7 | 230 | 6 | 10.3 | 6.1 | 999 | 1011 | 13089 10393 72306 10103 20061 39986 40111 7//// 8//// | |||
| 2013-04-13T09:00 | 8 | 240 | 8 | 11.3 | 5.2 | 999 | 1012 | 25 | 6 | 2 | 13099 10393 82408 10113 20052 39992 40117 72562 8//// |
| 2013-04-13T10:00 | 7 | 260 | 6 | 11.6 | 4.6 | 1000 | 1012 | 13109 10393 72606 10116 20046 39999 40124 7//// 8//// | |||
| 2013-04-13T11:00 | 8 | 240 | 8 | 10.9 | 5.2 | 1001 | 1014 | 80 | 2 | 2 | 13119 10393 82408 10109 20052 30011 40136 78022 8//// |
| 2013-04-13T12:00 | 6 | 260 | 8 | 12.4 | 3.7 | 1002 | 1014 | 25 | 8 | 6 | 13129 10393 62608 10124 20037 30016 40141 72586 8//// |
| 2013-04-13T13:00 | 7 | 270 | 8 | 12.5 | 3.1 | 1002 | 1015 | 13139 10393 72708 10125 20031 30024 40149 7//// 8//// | |||
| 2013-04-13T14:00 | 7 | 270 | 7 | 12.3 | 3.3 | 1003 | 1016 | 13149 10393 72707 10123 20033 30031 40156 7//// 8//// | |||
| 2013-04-13T15:00 | 6 | 290 | 6 | 12.7 | 3.1 | 1004 | 1016 | 13159 10393 62906 10127 20031 30038 40163 7//// 8//// | |||
| 2013-04-13T16:00 | 6 | 260 | 5 | 12.7 | 3.8 | 1004 | 1017 | 13169 10393 62605 10127 20038 30044 40169 7//// 8//// | |||
| 2013-04-13T17:00 | 6 | 230 | 4 | 11.5 | 6.2 | 1005 | 1018 | 13179 10393 62304 10115 20062 30052 40177 7//// 8//// | |||
| 2013-04-13T18:00 | 5 | 240 | 3 | 10.5 | 5.4 | 1006 | 1019 | 13189 10393 52403 10105 20054 30063 40189 7//// 8//// | |||
| 2013-04-13T19:00 | 3 | 260 | 4 | 9.4 | 4.6 | 1008 | 1020 | 13199 10393 32604 10094 20046 30077 40204 7//// 8//// | |||
| 2013-04-13T20:00 | 0 | 290 | 3 | 7.8 | 4.2 | 1008 | 1021 | 13209 10393 02903 10078 20042 30085 40212 7//// 8//// | |||
| 2013-04-13T21:00 | 0 | 260 | 3 | 6.8 | 4.5 | 1009 | 1022 | 13219 10393 02603 10068 20045 30093 40221 7//// 8//// | |||
| 2013-04-13T22:00 | 0 | 260 | 2 | 5.5 | 4.0 | 1010 | 1023 | 13229 10393 02602 10055 20040 30101 40230 7//// 8//// | |||
| 2013-04-13T23:00 | 0 | 270 | 3 | 5.6 | 3.9 | 1011 | 1024 | 13239 10393 02703 10056 20039 30108 40237 7//// 8//// | |||
| 2013-04-14T00:00 | 0 | 280 | 2 | 4.9 | 3.5 | 1011 | 1024 | 14009 10393 02802 10049 20035 30113 40242 7//// 8//// | |||
| 2013-04-14T01:00 | 0 | 290 | 2 | 4.8 | 3.7 | 1012 | 1024 | 14019 10393 02902 10048 20037 30116 40245 7//// 8//// | |||
| 2013-04-14T02:00 | 0 | 250 | 2 | 4.0 | 3.4 | 1012 | 1025 | 14029 10393 02502 10040 20034 30122 40252 7//// 8//// | |||
| 2013-04-14T03:00 | 0 | 320 | 1 | 4.5 | 3.9 | 1012 | 1025 | 14039 10393 03201 10045 20039 30124 40254 7//// 8//// | |||
| 2013-04-14T04:00 | 0 | 130 | 1 | 2.6 | 2.1 | 1013 | 1026 | 10 | 0 | 0 | 14049 10393 01301 10026 20021 30126 40256 71000 8//// |
| 2013-04-14T05:00 | 4 | 140 | 2 | 3.5 | 3.5 | 1013 | 1026 | 11 | 0 | 0 | 14059 10393 41402 10035 20035 30130 40260 71100 8//// |
| 2013-04-14T06:00 | 1 | 140 | 2 | 4.5 | 3.9 | 1013 | 1026 | 10 | 0 | 0 | 14069 10393 11402 10045 20039 30133 40263 71000 8//// |
| 2013-04-14T07:00 | 1 | 150 | 2 | 7.5 | 5.2 | 1014 | 1026 | 14079 10393 11502 10075 20052 30137 40265 7//// 8//// | |||
| 2013-04-14T08:00 | 2 | 160 | 3 | 9.6 | 6.2 | 1014 | 1027 | 14089 10393 21603 10096 20062 30141 40268 7//// 8//// | |||
| 2013-04-14T09:00 | 3 | 160 | 2 | 12.0 | 6.0 | 1014 | 1027 | 14099 10393 31602 10120 20060 30143 40269 7//// 8//// | |||
| 2013-04-14T10:00 | 4 | 170 | 3 | 14.6 | 6.2 | 1014 | 1027 | 14109 10393 41703 10146 20062 30144 40269 7//// 8//// | |||
| 2013-04-14T11:00 | 6 | 150 | 3 | 14.9 | 5.3 | 1014 | 1027 | 14119 10393 61503 10149 20053 30143 40268 7//// 8//// | |||
| 2013-04-14T12:00 | 7 | 160 | 3 | 15.7 | 4.7 | 1014 | 1026 | 14129 10393 71603 10157 20047 30140 40265 7//// 8//// | |||
| 2013-04-14T13:00 | 7 | 190 | 4 | 15.9 | 3.8 | 1014 | 1026 | 14139 10393 71904 10159 20038 30138 40263 7//// 8//// | |||
| 2013-04-14T14:00 | 6 | 190 | 3 | 16.6 | 4.1 | 1014 | 1026 | 14149 10393 61903 10166 20041 30136 40260 7//// 8//// | |||
| 2013-04-14T15:00 | 5 | 210 | 4 | 16.7 | 5.5 | 1013 | 1026 | 14159 10393 52104 10167 20055 30133 40257 7//// 8//// | |||
| 2013-04-14T16:00 | 4 | 190 | 3 | 16.8 | 5.3 | 1013 | 1026 | 14169 10393 41903 10168 20053 30133 40257 7//// 8//// | |||
| 2013-04-14T17:00 | 4 | 190 | 2 | 16.5 | 6.1 | 1013 | 1026 | 14179 10393 41902 10165 20061 30132 40256 7//// 8//// | |||
| 2013-04-14T18:00 | 6 | 140 | 2 | 13.2 | 6.7 | 1013 | 1026 | 14189 10393 61402 10132 20067 30132 40258 7//// 8//// | |||
| 2013-04-14T19:00 | 6 | 140 | 2 | 12.3 | 5.8 | 1013 | 1026 | 14199 10393 61402 10123 20058 30134 40260 7//// 8//// | |||
| 2013-04-14T20:00 | 4 | 130 | 2 | 11.7 | 5.5 | 1014 | 1026 | 14209 10393 41302 10117 20055 30135 40261 7//// 8//// | |||
| 2013-04-14T21:00 | 2 | 120 | 3 | 11.9 | 5.5 | 1013 | 1026 | 14219 10393 21203 10119 20055 30131 40257 7//// 8//// | |||
| 2013-04-14T22:00 | 0 | 130 | 3 | 10.4 | 5.5 | 1013 | 1026 | 14229 10393 01303 10104 20055 30129 40256 7//// 8//// | |||
| 2013-04-14T23:00 | 0 | 120 | 4 | 10.0 | 5.3 | 1013 | 1026 | 14239 10393 01204 10100 20053 30129 40256 7//// 8//// | |||
| 2013-04-15T00:00 | 0 | 120 | 4 | 10.3 | 4.7 | 1013 | 1026 | 15009 10393 01204 10103 20047 30129 40256 7//// 8//// | |||
| 2013-04-15T01:00 | 0 | 120 | 4 | 9.4 | 4.2 | 1013 | 1025 | 15019 10393 01204 10094 20042 30126 40253 7//// 8//// | |||
| 2013-04-15T02:00 | 0 | 130 | 4 | 8.1 | 4.2 | 1012 | 1025 | 15029 10393 01304 10081 20042 30123 40251 7//// 8//// | |||
| 2013-04-15T03:00 | 0 | 130 | 4 | 7.8 | 4.1 | 1012 | 1025 | 15039 10393 01304 10078 20041 30121 40249 7//// 8//// | |||
| 2013-04-15T04:00 | 3 | 120 | 4 | 7.8 | 3.8 | 1012 | 1025 | 15049 10393 31204 10078 20038 30119 40247 7//// 8//// | |||
| 2013-04-15T05:00 | 5 | 130 | 4 | 7.8 | 4.0 | 1012 | 1024 | 15059 10393 51304 10078 20040 30117 40245 7//// 8//// | |||
| 2013-04-15T06:00 | 4 | 130 | 4 | 9.7 | 4.9 | 1012 | 1024 | 15069 10393 41304 10097 20049 30116 40243 7//// 8//// | |||
| 2013-04-15T07:00 | 3 | 150 | 4 | 12.1 | 5.4 | 1012 | 1024 | 15079 10393 31504 10121 20054 30115 40241 7//// 8//// | |||
| 2013-04-15T08:00 | 3 | 160 | 4 | 14.1 | 6.3 | 1011 | 1024 | 15089 10393 31604 10141 20063 30112 40237 7//// 8//// | |||
| 2013-04-15T09:00 | 4 | 160 | 4 | 16.3 | 6.3 | 1010 | 1023 | 15099 10393 41604 10163 20063 30105 40229 7//// 8//// | |||
| 2013-04-15T10:00 | 3 | 160 | 5 | 18.1 | 6.4 | 1010 | 1022 | 15109 10393 31605 10181 20064 30101 40224 7//// 8//// | |||
| 2013-04-15T11:00 | 4 | 150 | 5 | 19.8 | 6.3 | 1010 | 1022 | 15119 10393 41505 10198 20063 30096 40218 7//// 8//// | |||
| 2013-04-15T12:00 | 6 | 160 | 4 | 19.9 | 6.4 | 1009 | 1021 | 15129 10393 61604 10199 20064 30092 40214 7//// 8//// | |||
| 2013-04-15T13:00 | 6 | 160 | 4 | 20.0 | 6.7 | 1009 | 1021 | 15139 10393 61604 10200 20067 30087 40209 7//// 8//// | |||
| 2013-04-15T14:00 | 5 | 160 | 3 | 20.9 | 6.3 | 1008 | 1021 | 15149 10393 51603 10209 20063 30084 40206 7//// 8//// | |||
| 2013-04-15T15:00 | 6 | 150 | 4 | 20.7 | 6.3 | 1008 | 1020 | 15159 10393 61504 10207 20063 30078 40200 7//// 8//// | |||
| 2013-04-15T16:00 | 6 | 150 | 4 | 20.7 | 6.1 | 1007 | 1020 | 15169 10393 61504 10207 20061 30073 40195 7//// 8//// | |||
| 2013-04-15T17:00 | 7 | 170 | 2 | 19.3 | 6.7 | 1008 | 1020 | 15179 10393 71702 10193 20067 30075 40197 7//// 8//// | |||
| 2013-04-15T18:00 | 7 | 150 | 3 | 17.8 | 7.0 | 1007 | 1020 | 15189 10393 71503 10178 20070 30074 40197 7//// 8//// | |||
| 2013-04-15T19:00 | 7 | 150 | 3 | 16.6 | 6.4 | 1007 | 1020 | 15199 10393 71503 10166 20064 30074 40197 7//// 8//// | |||
| 2013-04-15T20:00 | 7 | 150 | 3 | 16.1 | 5.5 | 1007 | 1020 | 15209 10393 71503 10161 20055 30072 40196 7//// 8//// | |||
| 2013-04-15T21:00 | 7 | 130 | 4 | 14.7 | 6.0 | 1007 | 1019 | 15219 10393 71304 10147 20060 30067 40191 7//// 8//// | |||
| 2013-04-15T22:00 | 7 | 130 | 4 | 14.4 | 6.1 | 1006 | 1019 | 15229 10393 71304 10144 20061 30065 40189 7//// 8//// | |||
| 2013-04-15T23:00 | 7 | 130 | 4 | 13.9 | 5.7 | 1006 | 1019 | 15239 10393 71304 10139 20057 30065 40189 7//// 8//// | |||
| 2013-04-16T00:00 | 7 | 130 | 4 | 13.2 | 5.5 | 1006 | 1019 | 16009 10393 71304 10132 20055 30063 40188 7//// 8//// | |||
| 2013-04-16T01:00 | 7 | 140 | 3 | 12.6 | 5.5 | 1006 | 1019 | 16019 10393 71403 10126 20055 30062 40187 7//// 8//// | |||
| 2013-04-16T02:00 | 7 | 130 | 3 | 12.9 | 4.6 | 1006 | 1018 | 16029 10393 71303 10129 20046 30060 40185 7//// 8//// | |||
| 2013-04-16T03:00 | 7 | 140 | 3 | 12.2 | 4.7 | 1006 | 1018 | 16039 10393 71403 10122 20047 30056 40181 7//// 8//// | |||
| 2013-04-16T04:00 | 4 | 140 | 3 | 11.6 | 3.8 | 1006 | 1018 | 16049 10393 41403 10116 20038 30055 40180 7//// 8//// | |||
| 2013-04-16T05:00 | 3 | 150 | 3 | 10.8 | 3.5 | 1006 | 1018 | 14 | 0 | 0 | 16059 10393 31503 10108 20035 30057 40183 71400 8//// |
| 2013-04-16T06:00 | 3 | 150 | 3 | 12.9 | 4.0 | 1006 | 1018 | 16069 10393 31503 10129 20040 30059 40184 7//// 8//// | |||
| 2013-04-16T07:00 | 4 | 180 | 2 | 14.3 | 5.3 | 1006 | 1019 | 16079 10393 41802 10143 20053 30063 40187 7//// 8//// | |||
| 2013-04-16T08:00 | 7 | 220 | 3 | 15.2 | 5.7 | 1006 | 1019 | 16089 10393 72203 10152 20057 30064 40188 7//// 8//// | |||
| 2013-04-16T09:00 | 6 | 190 | 3 | 16.5 | 6.6 | 1006 | 1018 | 16099 10393 61903 10165 20066 30062 40185 7//// 8//// | |||
| 2013-04-16T10:00 | 7 | 190 | 3 | 17.0 | 8.7 | 1006 | 1019 | 16109 10393 71903 10170 20087 30063 40186 7//// 8//// | |||
| 2013-04-16T11:00 | 7 | 210 | 3 | 17.7 | 9.4 | 1006 | 1018 | 81 | 2 | 2 | 16119 10393 72103 10177 20094 30061 40184 78122 8//// |
| 2013-04-16T12:00 | 7 | 240 | 3 | 16.7 | 12.3 | 1006 | 1018 | 25 | 8 | 1 | 16129 10393 72403 10167 20123 30062 40185 72581 8//// |
| 2013-04-16T13:00 | 7 | 240 | 3 | 17.7 | 12.4 | 1006 | 1018 | 60 | 2 | 2 | 16139 10393 72403 10177 20124 30061 40184 76022 8//// |
| 2013-04-16T14:00 | 7 | 220 | 3 | 19.4 | 12.3 | 1006 | 1018 | 21 | 2 | 2 | 16149 10393 72203 10194 20123 30058 40180 72122 8//// |
| 2013-04-16T15:00 | 7 | 220 | 3 | 18.9 | 11.9 | 1006 | 1018 | 3 | 6 | 2 | 16159 10393 72203 10189 20119 30057 40179 70362 8//// |
| 2013-04-16T16:00 | 7 | 220 | 2 | 19.2 | 12.0 | 1006 | 1018 | 16169 10393 72202 10192 20120 30057 40179 7//// 8//// | |||
| 2013-04-16T17:00 | 7 | 160 | 2 | 17.7 | 10.3 | 1005 | 1018 | 16179 10393 71602 10177 20103 30054 40177 7//// 8//// | |||
| 2013-04-16T18:00 | 7 | 160 | 2 | 15.8 | 10.1 | 1006 | 1018 | 3 | 6 | 2 | 16189 10393 71602 10158 20101 30059 40182 70362 8//// |
| 2013-04-16T19:00 | 7 | 160 | 2 | 14.8 | 9.3 | 1006 | 1019 | 16199 10393 71602 10148 20093 30065 40189 7//// 8//// | |||
| 2013-04-16T20:00 | 8 | 150 | 2 | 14.6 | 8.9 | 1007 | 1019 | 16209 10393 81502 10146 20089 30067 40191 7//// 8//// | |||
| 2013-04-16T21:00 | 8 | 190 | 3 | 13.7 | 11.0 | 1007 | 1019 | 80 | 2 | 2 | 16219 10393 81903 10137 20110 30068 40192 78022 8//// |
| 2013-04-16T22:00 | 8 | 160 | 3 | 13.2 | 11.2 | 1007 | 1019 | 25 | 2 | 2 | 16229 10393 81603 10132 20112 30069 40194 72522 8//// |
| 2013-04-16T23:00 | 8 | 190 | 3 | 13.6 | 11.6 | 1007 | 1019 | 16239 10393 81903 10136 20116 30070 40194 7//// 8//// | |||
| 2013-04-17T00:00 | 8 | 180 | 3 | 13.3 | 11.4 | 1007 | 1020 | 21 | 8 | 2 | 17009 10393 81803 10133 20114 30071 40196 72182 8//// |
| 2013-04-17T01:00 | 8 | 210 | 2 | 13.3 | 10.8 | 1007 | 1020 | 17019 10393 82102 10133 20108 30070 40195 7//// 8//// | |||
| 2013-04-17T02:00 | 8 | 270 | 2 | 12.8 | 10.8 | 1007 | 1020 | 17029 10393 82702 10128 20108 30074 40199 7//// 8//// | |||
| 2013-04-17T03:00 | 8 | 300 | 2 | 12.4 | 10.9 | 1008 | 1020 | 17039 10393 83002 10124 20109 30076 40201 7//// 8//// | |||
| 2013-04-17T04:00 | 8 | 310 | 3 | 11.7 | 10.6 | 1008 | 1020 | 10 | 2 | 2 | 17049 10393 83103 10117 20106 30080 40205 71022 8//// |
| 2013-04-17T05:00 | 7 | 330 | 2 | 11.5 | 10.9 | 1009 | 1021 | 10 | 2 | 2 | 17059 10393 73302 10115 20109 30087 40213 71022 8//// |
| 2013-04-17T06:00 | 7 | 340 | 2 | 12.7 | 11.2 | 1010 | 1022 | 17069 10393 73402 10127 20112 30095 40220 7//// 8//// | |||
| 2013-04-17T07:00 | 7 | 10 | 2 | 13.8 | 10.4 | 1010 | 1023 | 17079 10393 70102 10138 20104 30101 40226 7//// 8//// | |||
| 2013-04-17T08:00 | 6 | 50 | 1 | 14.9 | 9.3 | 1010 | 1022 | 17089 10393 60501 10149 20093 30100 40224 7//// 8//// | |||
| 2013-04-17T09:00 | 5 | 120 | 1 | 16.6 | 9.5 | 1010 | 1022 | 17099 10393 51201 10166 20095 30101 40225 7//// 8//// | |||
| 2013-04-17T10:00 | 6 | 270 | 2 | 17.4 | 9.4 | 1010 | 1023 | 17109 10393 62702 10174 20094 30103 40226 7//// 8//// | |||
| 2013-04-17T11:00 | 7 | 160 | 1 | 18.6 | 9.0 | 1010 | 1022 | 17119 10393 71601 10186 20090 30098 40221 7//// 8//// | |||
| 2013-04-17T12:00 | 7 | 260 | 2 | 19.6 | 8.8 | 1010 | 1022 | 17129 10393 72602 10196 20088 30097 40219 7//// 8//// | |||
| 2013-04-17T13:00 | 6 | 300 | 2 | 19.2 | 8.8 | 1009 | 1022 | 17139 10393 63002 10192 20088 30094 40216 7//// 8//// | |||
| 2013-04-17T14:00 | 7 | 310 | 2 | 19.7 | 8.4 | 1009 | 1021 | 17149 10393 73102 10197 20084 30089 40211 7//// 8//// | |||
| 2013-04-17T15:00 | 7 | 340 | 1 | 19.7 | 8.2 | 1008 | 1021 | 17159 10393 73401 10197 20082 30085 40207 7//// 8//// | |||
| 2013-04-17T16:00 | 5 | 200 | 2 | 19.9 | 7.9 | 1008 | 1020 | 17169 10393 52002 10199 20079 30081 40203 7//// 8//// | |||
| 2013-04-17T17:00 | 7 | 210 | 2 | 19.4 | 9.0 | 1008 | 1020 | 17179 10393 72102 10194 20090 30079 40201 7//// 8//// | |||
| 2013-04-17T18:00 | 7 | 180 | 2 | 17.8 | 10.0 | 1008 | 1020 | 17189 10393 71802 10178 20100 30076 40199 7//// 8//// | |||
| 2013-04-17T19:00 | 3 | 190 | 2 | 16.4 | 9.2 | 1008 | 1020 | 17199 10393 31902 10164 20092 30078 40201 7//// 8//// | |||
| 2013-04-17T20:00 | 5 | 150 | 2 | 15.4 | 8.9 | 1007 | 1020 | 17209 10393 51502 10154 20089 30074 40198 7//// 8//// | |||
| 2013-04-17T21:00 | 5 | 150 | 2 | 15.4 | 8.3 | 1007 | 1019 | 17219 10393 51502 10154 20083 30068 40192 7//// 8//// | |||
| 2013-04-17T22:00 | 6 | 140 | 3 | 14.8 | 8.6 | 1006 | 1019 | 17229 10393 61403 10148 20086 30065 40189 7//// 8//// | |||
| 2013-04-17T23:00 | 1 | 150 | 3 | 13.5 | 8.2 | 1006 | 1019 | 17239 10393 11503 10135 20082 30061 40186 7//// 8//// | |||
| 2013-04-18T00:00 | 2 | 150 | 3 | 12.4 | 7.9 | 1006 | 1018 | 18009 10393 21503 10124 20079 30055 40180 7//// 8//// | |||
| 2013-04-18T01:00 | 1 | 160 | 3 | 12.9 | 7.6 | 1005 | 1018 | 18019 10393 11603 10129 20076 30051 40176 7//// 8//// | |||
| 2013-04-18T02:00 | 1 | 150 | 3 | 11.8 | 7.7 | 1004 | 1017 | 18029 10393 11503 10118 20077 30045 40170 7//// 8//// | |||
| 2013-04-18T03:00 | 2 | 160 | 3 | 11.4 | 7.8 | 1004 | 1016 | 18039 10393 21603 10114 20078 30040 40165 7//// 8//// | |||
| 2013-04-18T04:00 | 3 | 150 | 3 | 11.1 | 8.0 | 1003 | 1016 | 18049 10393 31503 10111 20080 30032 40157 7//// 8//// | |||
| 2013-04-18T05:00 | 5 | 160 | 3 | 11.5 | 8.4 | 1003 | 1015 | 18059 10393 51603 10115 20084 30028 40153 7//// 8//// | |||
| 2013-04-18T06:00 | 7 | 160 | 3 | 12.6 | 9.3 | 1002 | 1015 | 18069 10393 71603 10126 20093 30024 40148 7//// 8//// | |||
| 2013-04-18T07:00 | 5 | 170 | 3 | 15.7 | 10.4 | 1002 | 1014 | 18079 10393 51703 10157 20104 30020 40143 7//// 8//// | |||
| 2013-04-18T08:00 | 5 | 180 | 4 | 19.0 | 11.0 | 1001 | 1014 | 18089 10393 51804 10190 20110 30014 40135 7//// 8//// | |||
| 2013-04-18T09:00 | 5 | 200 | 6 | 21.6 | 10.9 | 1001 | 1013 | 18099 10393 52006 10216 20109 30006 40126 7//// 8//// | |||
| 2013-04-18T10:00 | 5 | 220 | 7 | 22.4 | 9.5 | 1000 | 1012 | 18109 10393 52207 10224 20095 30005 40125 7//// 8//// | |||
| 2013-04-18T11:00 | 5 | 220 | 7 | 24.2 | 9.6 | 1000 | 1012 | 18119 10393 52207 10242 20096 39999 40118 7//// 8//// | |||
| 2013-04-18T12:00 | 6 | 210 | 5 | 25.5 | 10.1 | 1000 | 1011 | 18129 10393 62105 10255 20101 39995 40114 7//// 8//// | |||
| 2013-04-18T13:00 | 6 | 230 | 7 | 25.4 | 10.6 | 999 | 1011 | 18139 10393 62307 10254 20106 39993 40112 7//// 8//// | |||
| 2013-04-18T14:00 | 6 | 230 | 6 | 25.4 | 11.0 | 999 | 1011 | 18149 10393 62306 10254 20110 39991 40110 7//// 8//// | |||
| 2013-04-18T15:00 | 5 | 250 | 6 | 24.9 | 10.7 | 999 | 1011 | 18159 10393 52506 10249 20107 39989 40108 7//// 8//// | |||
| 2013-04-18T16:00 | 4 | 240 | 8 | 24.0 | 10.1 | 999 | 1011 | 18169 10393 42408 10240 20101 39994 40113 7//// 8//// | |||
| 2013-04-18T17:00 | 4 | 310 | 5 | 18.4 | 8.3 | 1000 | 1013 | 25 | 0 | 0 | 18179 10393 43105 10184 20083 30005 40127 72500 8//// |
| 2013-04-18T18:00 | 7 | 300 | 4 | 17.4 | 8.2 | 1001 | 1013 | 3 | 8 | 1 | 18189 10393 73004 10174 20082 30011 40133 70381 8//// |
| 2013-04-18T19:00 | 7 | 300 | 4 | 17.1 | 5.0 | 1002 | 1014 | 18199 10393 73004 10171 20050 30022 40145 7//// 8//// | |||
| 2013-04-18T20:00 | 7 | 310 | 5 | 15.7 | 1.8 | 1003 | 1015 | 18209 10393 73105 10157 20018 30027 40150 7//// 8//// | |||
| 2013-04-18T21:00 | 7 | 310 | 2 | 14.1 | 1.4 | 1004 | 1016 | 18219 10393 73102 10141 20014 30036 40160 7//// 8//// | |||
| 2013-04-18T22:00 | 8 | 310 | 3 | 13.9 | 1.8 | 1004 | 1017 | 18229 10393 83103 10139 20018 30043 40167 7//// 8//// | |||
| 2013-04-18T23:00 | 8 | 300 | 2 | 13.6 | 1.0 | 1005 | 1017 | 18239 10393 83002 10136 20010 30049 40174 7//// 8//// | |||
| 2013-04-19T00:00 | 8 | 300 | 2 | 12.6 | 2.2 | 1005 | 1018 | 19009 10393 83002 10126 20022 30051 40176 7//// 8//// | |||
| 2013-04-19T01:00 | 7 | 260 | 3 | 12.7 | 1.9 | 1005 | 1018 | 19019 10393 72603 10127 20019 30052 40177 7//// 8//// | |||
| 2013-04-19T02:00 | 7 | 280 | 3 | 12.6 | 1.7 | 1006 | 1018 | 19029 10393 72803 10126 20017 30057 40182 7//// 8//// | |||
| 2013-04-19T03:00 | 7 | 280 | 2 | 11.5 | 1.9 | 1006 | 1018 | 19039 10393 72802 10115 20019 30058 40184 7//// 8//// | |||
| 2013-04-19T04:00 | 7 | 270 | 4 | 11.1 | 1.9 | 1006 | 1019 | 19049 10393 72704 10111 20019 30062 40188 7//// 8//// | |||
| 2013-04-19T05:00 | 6 | 260 | 4 | 11.3 | 1.8 | 1007 | 1019 | 19059 10393 62604 10113 20018 30066 40192 7//// 8//// | |||
| 2013-04-19T06:00 | 6 | 260 | 2 | 12.0 | 1.6 | 1007 | 1019 | 19069 10393 62602 10120 20016 30068 40193 7//// 8//// | |||
| 2013-04-19T07:00 | 7 | 260 | 3 | 13.0 | 2.2 | 1007 | 1020 | 19079 10393 72603 10130 20022 30072 40197 7//// 8//// | |||
| 2013-04-19T08:00 | 7 | 240 | 5 | 14.5 | 0.7 | 1007 | 1020 | 19089 10393 72405 10145 20007 30072 40196 7//// 8//// | |||
| 2013-04-19T09:00 | 7 | 260 | 5 | 15.3 | 1.3 | 1007 | 1020 | 19099 10393 72605 10153 20013 30073 40197 7//// 8//// | |||
| 2013-04-19T10:00 | 7 | 300 | 4 | 14.8 | 2.2 | 1008 | 1020 | 19109 10393 73004 10148 20022 30075 40199 7//// 8//// | |||
| 2013-04-19T11:00 | 7 | 260 | 4 | 15.6 | 1.2 | 1007 | 1020 | 19119 10393 72604 10156 20012 30073 40197 7//// 8//// | |||
| 2013-04-19T12:00 | 7 | 290 | 5 | 15.7 | 1.8 | 1007 | 1020 | 19129 10393 72905 10157 20018 30074 40198 7//// 8//// | |||
| 2013-04-19T13:00 | 7 | 300 | 5 | 15.8 | 2.3 | 1008 | 1020 | 19139 10393 73005 10158 20023 30075 40199 7//// 8//// | |||
| 2013-04-19T14:00 | 7 | 290 | 6 | 15.9 | 0.3 | 1008 | 1020 | 19149 10393 72906 10159 20003 30075 40199 7//// 8//// | |||
| 2013-04-19T15:00 | 6 | 300 | 5 | 15.8 | 0.8 | 1008 | 1020 | 19159 10393 63005 10158 20008 30077 40201 7//// 8//// | |||
| 2013-04-19T16:00 | 6 | 300 | 5 | 14.5 | 0.9 | 1008 | 1021 | 19169 10393 63005 10145 20009 30084 40209 7//// 8//// | |||
| 2013-04-19T17:00 | 7 | 310 | 4 | 13.3 | 2.0 | 1009 | 1021 | 19179 10393 73104 10133 20020 30088 40213 7//// 8//// | |||
| 2013-04-19T18:00 | 8 | 300 | 3 | 12.6 | 1.0 | 1009 | 1022 | 19189 10393 83003 10126 20010 30094 40220 7//// 8//// | |||
| 2013-04-19T19:00 | 8 | 310 | 3 | 11.0 | 1.8 | 1010 | 1023 | 19199 10393 83103 10110 20018 30101 40227 7//// 8//// | |||
| 2013-04-19T20:00 | 7 | 310 | 3 | 9.7 | 1.3 | 1010 | 1023 | 19209 10393 73103 10097 20013 30104 40231 7//// 8//// | |||
| 2013-04-19T21:00 | 8 | 340 | 3 | 9.1 | 1.8 | 1011 | 1024 | 19219 10393 83403 10091 20018 30111 40238 7//// 8//// | |||
| 2013-04-19T22:00 | 8 | 340 | 2 | 7.4 | 2.5 | 1012 | 1025 | 19229 10393 83402 10074 20025 30119 40247 7//// 8//// | |||
| 2013-04-19T23:00 | 8 | 340 | 2 | 7.5 | 3.1 | 1012 | 1025 | 19239 10393 83402 10075 20031 30123 40251 7//// 8//// | |||
| 2013-04-20T00:00 | 8 | 340 | 3 | 7.3 | 3.5 | 1013 | 1026 | 20009 10393 83403 10073 20035 30129 40257 7//// 8//// | |||
| 2013-04-20T01:00 | 6 | 360 | 3 | 6.5 | 3.1 | 1014 | 1026 | 20019 10393 63603 10065 20031 30135 40264 7//// 8//// | |||
| 2013-04-20T02:00 | 6 | 360 | 2 | 6.1 | 2.2 | 1014 | 1027 | 20029 10393 63602 10061 20022 30139 40268 7//// 8//// | |||
| 2013-04-20T03:00 | 6 | 360 | 2 | 4.7 | 1.9 | 1014 | 1027 | 20039 10393 63602 10047 20019 30144 40274 7//// 8//// | |||
| 2013-04-20T04:00 | 7 | 320 | 1 | 4.2 | 1.8 | 1015 | 1028 | 20049 10393 73201 10042 20018 30149 40279 7//// 8//// | |||
| 2013-04-20T05:00 | 5 | 330 | 2 | 4.2 | 2.3 | 1016 | 1029 | 20059 10393 53302 10042 20023 30156 40286 7//// 8//// | |||
| 2013-04-20T06:00 | 7 | 350 | 3 | 5.7 | 3.0 | 1016 | 1029 | 20069 10393 73503 10057 20030 30162 40291 7//// 8//// | |||
| 2013-04-20T07:00 | 6 | 20 | 3 | 6.5 | 1.7 | 1016 | 1029 | 20079 10393 60203 10065 20017 30163 40292 7//// 8//// | |||
| 2013-04-20T08:00 | 7 | 340 | 2 | 7.4 | 1.4 | 1017 | 1030 | 20089 10393 73402 10074 20014 30166 40295 7//// 8//// | |||
| 2013-04-20T09:00 | 7 | 20 | 3 | 8.8 | 0.9 | 1017 | 1030 | 20099 10393 70203 10088 20009 30167 40295 7//// 8//// | |||
| 2013-04-20T10:00 | 7 | 10 | 2 | 8.6 | -0.5 | 1017 | 1030 | 20109 10393 70102 10086 21005 30167 40295 7//// 8//// | |||
| 2013-04-20T11:00 | 6 | 350 | 2 | 10.5 | 0.1 | 1016 | 1029 | 20119 10393 63502 10105 20001 30162 40289 7//// 8//// | |||
| 2013-04-20T12:00 | 7 | 30 | 2 | 10.9 | 0.7 | 1016 | 1029 | 20129 10393 70302 10109 20007 30163 40290 7//// 8//// | |||
| 2013-04-20T13:00 | 7 | 20 | 3 | 10.9 | -2.0 | 1016 | 1029 | 20139 10393 70203 10109 21020 30161 40288 7//// 8//// | |||
| 2013-04-20T14:00 | 7 | 360 | 3 | 11.3 | -0.5 | 1016 | 1028 | 20149 10393 73603 10113 21005 30158 40285 7//// 8//// | |||
| 2013-04-20T15:00 | 7 | 50 | 3 | 11.6 | -1.0 | 1016 | 1028 | 20159 10393 70503 10116 21010 30155 40282 7//// 8//// | |||
| 2013-04-20T16:00 | 7 | 30 | 2 | 11.1 | -0.9 | 1015 | 1028 | 20169 10393 70302 10111 21009 30152 40279 7//// 8//// | |||
| 2013-04-20T17:00 | 7 | 40 | 3 | 11.1 | 0.1 | 1015 | 1028 | 20179 10393 70403 10111 20001 30149 40276 7//// 8//// | |||
| 2013-04-20T18:00 | 6 | 30 | 2 | 10.0 | 0.2 | 1015 | 1028 | 20189 10393 60302 10100 20002 30148 40275 7//// 8//// | |||
| 2013-04-20T19:00 | 4 | 30 | 3 | 7.4 | 0.4 | 1015 | 1028 | 20199 10393 40303 10074 20004 30147 40276 7//// 8//// | |||
| 2013-04-20T20:00 | 3 | 30 | 2 | 7.5 | -0.1 | 1015 | 1028 | 20209 10393 30302 10075 21001 30150 40279 7//// 8//// | |||
| 2013-04-20T21:00 | 4 | 30 | 3 | 7.7 | 0.0 | 1015 | 1028 | 20219 10393 40303 10077 20000 30149 40277 7//// 8//// | |||
| 2013-04-20T22:00 | 4 | 30 | 3 | 7.5 | 1.4 | 1015 | 1028 | 20229 10393 40303 10075 20014 30147 40275 7//// 8//// | |||
| 2013-04-20T23:00 | 4 | 40 | 4 | 6.8 | 1.8 | 1014 | 1027 | 20239 10393 40404 10068 20018 30144 40273 7//// 8//// | |||
| 2013-04-21T00:00 | 5 | 40 | 4 | 6.2 | 1.9 | 1014 | 1027 | 21009 10393 50404 10062 20019 30142 40271 7//// 8//// | |||
| 2013-04-21T01:00 | 3 | 60 | 4 | 6.3 | 1.3 | 1014 | 1027 | 21019 10393 30604 10063 20013 30137 40266 7//// 8//// | |||
| 2013-04-21T02:00 | 1 | 70 | 3 | 5.4 | 1.0 | 1014 | 1026 | 21029 10393 10703 10054 20010 30135 40264 7//// 8//// | |||
| 2013-04-21T03:00 | 1 | 80 | 4 | 4.7 | 0.9 | 1013 | 1026 | 21039 10393 10804 10047 20009 30133 40263 7//// 8//// | |||
| 2013-04-21T04:00 | 3 | 80 | 3 | 4.4 | 1.0 | 1013 | 1026 | 21049 10393 30803 10044 20010 30128 40258 7//// 8//// | |||
| 2013-04-21T05:00 | 4 | 80 | 3 | 4.5 | 1.1 | 1013 | 1026 | 21059 10393 40803 10045 20011 30127 40257 7//// 8//// | |||
| 2013-04-21T06:00 | 5 | 100 | 4 | 5.9 | 1.7 | 1013 | 1026 | 21069 10393 51004 10059 20017 30126 40255 7//// 8//// | |||
| 2013-04-21T07:00 | 5 | 100 | 4 | 8.0 | 2.0 | 1012 | 1025 | 21079 10393 51004 10080 20020 30123 40251 7//// 8//// | |||
| 2013-04-21T08:00 | 5 | 90 | 4 | 10.4 | 0.3 | 1012 | 1024 | 21089 10393 50904 10104 20003 30117 40244 7//// 8//// | |||
| 2013-04-21T09:00 | 4 | 80 | 4 | 11.7 | -3.2 | 1011 | 1024 | 21099 10393 40804 10117 21032 30111 40237 7//// 8//// | |||
| 2013-04-21T10:00 | 4 | 100 | 5 | 12.9 | -1.4 | 1010 | 1023 | 21109 10393 41005 10129 21014 30104 40230 7//// 8//// | |||
| 2013-04-21T11:00 | 4 | 100 | 5 | 13.6 | 0.3 | 1009 | 1022 | 21119 10393 41005 10136 20003 30094 40219 7//// 8//// | |||
| 2013-04-21T12:00 | 5 | 110 | 4 | 14.4 | 1.7 | 1008 | 1021 | 21129 10393 51104 10144 20017 30085 40210 7//// 8//// | |||
| 2013-04-21T13:00 | 5 | 100 | 5 | 15.1 | 1.8 | 1008 | 1020 | 21139 10393 51005 10151 20018 30076 40200 7//// 8//// | |||
| 2013-04-21T14:00 | 4 | 120 | 4 | 16.0 | 3.4 | 1006 | 1019 | 21149 10393 41204 10160 20034 30065 40189 7//// 8//// | |||
| 2013-04-21T15:00 | 0 | 90 | 4 | 15.8 | 2.5 | 1006 | 1018 | 21159 10393 00904 10158 20025 30057 40181 7//// 8//// | |||
| 2013-04-21T16:00 | 3 | 100 | 4 | 15.6 | 2.4 | 1005 | 1017 | 21169 10393 31004 10156 20024 30049 40173 7//// 8//// | |||
| 2013-04-21T17:00 | 7 | 100 | 4 | 14.9 | 2.9 | 1004 | 1017 | 21179 10393 71004 10149 20029 30044 40168 7//// 8//// | |||
| 2013-04-21T18:00 | 7 | 100 | 4 | 13.8 | 3.2 | 1004 | 1016 | 21189 10393 71004 10138 20032 30041 40165 7//// 8//// | |||
| 2013-04-21T19:00 | 7 | 100 | 4 | 12.5 | 2.9 | 1004 | 1017 | 21199 10393 71004 10125 20029 30041 40166 7//// 8//// | |||
| 2013-04-21T20:00 | 6 | 90 | 4 | 11.7 | 1.9 | 1004 | 1016 | 21209 10393 60904 10117 20019 30039 40164 7//// 8//// | |||
| 2013-04-21T21:00 | 6 | 100 | 4 | 11.0 | 1.0 | 1004 | 1016 | 21219 10393 61004 10110 20010 30036 40162 7//// 8//// | |||
| 2013-04-21T22:00 | 6 | 100 | 4 | 10.7 | 1.0 | 1003 | 1016 | 21229 10393 61004 10107 20010 30032 40158 7//// 8//// | |||
| 2013-04-21T23:00 | 6 | 100 | 4 | 10.3 | 1.2 | 1003 | 1016 | 21239 10393 61004 10103 20012 30029 40155 7//// 8//// | |||
| 2013-04-22T00:00 | 7 | 110 | 4 | 9.9 | 1.5 | 1002 | 1015 | 22009 10393 71104 10099 20015 30023 40149 7//// 8//// | |||
| 2013-04-22T01:00 | 7 | 110 | 4 | 10.0 | 1.8 | 1002 | 1014 | 22019 10393 71104 10100 20018 30018 40144 7//// 8//// | |||
| 2013-04-22T02:00 | 7 | 120 | 4 | 9.4 | 2.2 | 1002 | 1014 | 22029 10393 71204 10094 20022 30015 40141 7//// 8//// | |||
| 2013-04-22T03:00 | 5 | 120 | 3 | 8.5 | 2.1 | 1001 | 1014 | 22039 10393 51203 10085 20021 30012 40138 7//// 8//// | |||
| 2013-04-22T04:00 | 6 | 130 | 2 | 7.3 | 2.1 | 1001 | 1014 | 22049 10393 61302 10073 20021 30013 40140 7//// 8//// | |||
| 2013-04-22T05:00 | 7 | 120 | 1 | 8.8 | 3.1 | 1001 | 1014 | 25 | 2 | 2 | 22059 10393 71201 10088 20031 30014 40140 72522 8//// |
| 2013-04-22T06:00 | 5 | 150 | 1 | 9.6 | 2.5 | 1002 | 1014 | 25 | 8 | 2 | 22069 10393 51501 10096 20025 30016 40142 72582 8//// |
| 2013-04-22T07:00 | 6 | 180 | 1 | 10.6 | 4.0 | 1002 | 1014 | 22079 10393 61801 10106 20040 30019 40144 7//// 8//// | |||
| 2013-04-22T08:00 | 7 | 170 | 2 | 10.4 | 4.8 | 1002 | 1014 | 80 | 2 | 2 | 22089 10393 71702 10104 20048 30020 40145 78022 8//// |
| 2013-04-22T09:00 | 7 | 230 | 2 | 11.3 | 6.0 | 1002 | 1015 | 25 | 8 | 2 | 22099 10393 72302 10113 20060 30022 40147 72582 8//// |
| 2013-04-22T10:00 | 7 | 300 | 2 | 13.7 | 7.0 | 1002 | 1014 | 22109 10393 73002 10137 20070 30020 40144 7//// 8//// | |||
| 2013-04-22T11:00 | 6 | 300 | 2 | 15.6 | 7.1 | 1002 | 1014 | 22119 10393 63002 10156 20071 30019 40142 7//// 8//// | |||
| 2013-04-22T12:00 | 7 | 310 | 2 | 17.2 | 8.2 | 1002 | 1014 | 3 | 8 | 2 | 22129 10393 73102 10172 20082 30018 40140 70382 8//// |
| 2013-04-22T13:00 | 5 | 300 | 2 | 17.9 | 7.7 | 1002 | 1014 | 22139 10393 53002 10179 20077 30017 40139 7//// 8//// | |||
| 2013-04-22T14:00 | 7 | 160 | 1 | 18.1 | 9.0 | 1001 | 1014 | 22149 10393 71601 10181 20090 30014 40136 7//// 8//// | |||
| 2013-04-22T15:00 | 7 | 230 | 3 | 17.9 | 8.8 | 1001 | 1013 | 22159 10393 72303 10179 20088 30012 40134 7//// 8//// | |||
| 2013-04-22T16:00 | 7 | 180 | 2 | 18.0 | 10.3 | 1001 | 1013 | 22169 10393 71802 10180 20103 30011 40133 7//// 8//// | |||
| 2013-04-22T17:00 | 5 | 300 | 5 | 16.5 | 7.6 | 1002 | 1014 | 22179 10393 53005 10165 20076 30016 40139 7//// 8//// | |||
| 2013-04-22T18:00 | 6 | 300 | 3 | 14.3 | 7.0 | 1002 | 1015 | 22189 10393 63003 10143 20070 30023 40147 7//// 8//// | |||
| 2013-04-22T19:00 | 5 | 300 | 4 | 12.1 | 6.8 | 1003 | 1015 | 22199 10393 53004 10121 20068 30026 40151 7//// 8//// | |||
| 2013-04-22T20:00 | 0 | 290 | 4 | 11.0 | 6.1 | 1003 | 1016 | 22209 10393 02904 10110 20061 30030 40155 7//// 8//// | |||
| 2013-04-22T21:00 | 0 | 300 | 4 | 9.7 | 5.8 | 1004 | 1016 | 22219 10393 03004 10097 20058 30036 40162 7//// 8//// | |||
| 2013-04-22T22:00 | 3 | 280 | 2 | 8.8 | 5.4 | 1004 | 1017 | 22229 10393 32802 10088 20054 30040 40166 7//// 8//// | |||
| 2013-04-22T23:00 | 7 | 250 | 2 | 9.8 | 5.3 | 1004 | 1017 | 22239 10393 72502 10098 20053 30040 40166 7//// 8//// | |||
| 2013-04-23T00:00 | 8 | 230 | 2 | 9.6 | 5.1 | 1004 | 1017 | 23009 10393 82302 10096 20051 30040 40166 7//// 8//// | |||
| 2013-04-23T01:00 | 8 | 260 | 2 | 9.3 | 4.6 | 1004 | 1017 | 23019 10393 82602 10093 20046 30041 40167 7//// 8//// | |||
| 2013-04-23T02:00 | 8 | 220 | 2 | 9.2 | 4.3 | 1004 | 1017 | 23029 10393 82202 10092 20043 30040 40166 7//// 8//// | |||
| 2013-04-23T03:00 | 8 | 190 | 2 | 9.0 | 4.6 | 1004 | 1016 | 23039 10393 81902 10090 20046 30036 40162 7//// 8//// | |||
| 2013-04-23T04:00 | 7 | 220 | 3 | 9.3 | 4.6 | 1004 | 1017 | 23049 10393 72203 10093 20046 30040 40166 7//// 8//// | |||
| 2013-04-23T05:00 | 7 | 180 | 3 | 9.2 | 5.2 | 1004 | 1016 | 23059 10393 71803 10092 20052 30037 40163 7//// 8//// | |||
| 2013-04-23T06:00 | 7 | 200 | 3 | 10.5 | 6.1 | 1004 | 1016 | 23069 10393 72003 10105 20061 30039 40165 7//// 8//// | |||
| 2013-04-23T07:00 | 7 | 230 | 5 | 12.0 | 6.5 | 1004 | 1016 | 23079 10393 72305 10120 20065 30040 40165 7//// 8//// | |||
| 2013-04-23T08:00 | 7 | 240 | 5 | 13.3 | 6.7 | 1005 | 1017 | 23089 10393 72405 10133 20067 30046 40170 7//// 8//// | |||
| 2013-04-23T09:00 | 8 | 240 | 6 | 14.2 | 4.0 | 1005 | 1017 | 23099 10393 82406 10142 20040 30048 40172 7//// 8//// | |||
| 2013-04-23T10:00 | 7 | 240 | 8 | 16.0 | 2.5 | 1005 | 1017 | 23109 10393 72408 10160 20025 30048 40171 7//// 8//// | |||
| 2013-04-23T11:00 | 5 | 240 | 10 | 16.8 | 0.1 | 1004 | 1017 | 23119 10393 52410 10168 20001 30044 40167 7//// 8//// | |||
| 2013-04-23T12:00 | 2 | 250 | 9 | 17.7 | 0.3 | 1004 | 1016 | 23129 10393 22509 10177 20003 30042 40165 7//// 8//// | |||
| 2013-04-23T13:00 | 2 | 250 | 8 | 19.0 | 2.6 | 1004 | 1016 | 23139 10393 22508 10190 20026 30043 40165 7//// 8//// | |||
| 2013-04-23T14:00 | 6 | 240 | 8 | 17.9 | 4.7 | 1005 | 1017 | 23149 10393 62408 10179 20047 30047 40170 7//// 8//// | |||
| 2013-04-23T15:00 | 7 | 290 | 7 | 16.5 | 6.2 | 1005 | 1018 | 23159 10393 72907 10165 20062 30053 40176 7//// 8//// | |||
| 2013-04-23T16:00 | 7 | 290 | 5 | 15.9 | 6.8 | 1006 | 1018 | 23169 10393 72905 10159 20068 30059 40183 7//// 8//// | |||
| 2013-04-23T17:00 | 5 | 290 | 5 | 15.6 | 7.5 | 1006 | 1019 | 23179 10393 52905 10156 20075 30062 40186 7//// 8//// | |||
| 2013-04-23T18:00 | 6 | 270 | 6 | 15.1 | 7.1 | 1007 | 1019 | 23189 10393 62706 10151 20071 30067 40191 7//// 8//// | |||
| 2013-04-23T19:00 | 6 | 270 | 4 | 14.4 | 7.1 | 1007 | 1020 | 23199 10393 62704 10144 20071 30072 40196 7//// 8//// | |||
| 2013-04-23T20:00 | 7 | 300 | 4 | 13.7 | 7.6 | 1008 | 1021 | 23209 10393 73004 10137 20076 30082 40207 7//// 8//// | |||
| 2013-04-23T21:00 | 7 | 270 | 4 | 13.2 | 6.9 | 1009 | 1021 | 23219 10393 72704 10132 20069 30087 40212 7//// 8//// | |||
| 2013-04-23T22:00 | 4 | 270 | 4 | 12.1 | 7.2 | 1009 | 1022 | 23229 10393 42704 10121 20072 30091 40217 7//// 8//// | |||
| 2013-04-23T23:00 | 0 | 250 | 3 | 10.6 | 6.7 | 1010 | 1022 | 23239 10393 02503 10106 20067 30096 40222 7//// 8//// | |||
| 2013-04-24T00:00 | 0 | 260 | 3 | 10.2 | 6.6 | 1010 | 1022 | 24009 10393 02603 10102 20066 30097 40223 7//// 8//// | |||
| 2013-04-24T01:00 | 3 | 270 | 3 | 8.9 | 6.3 | 1010 | 1023 | 24019 10393 32703 10089 20063 30103 40230 7//// 8//// | |||
| 2013-04-24T02:00 | 3 | 270 | 4 | 9.2 | 6.7 | 1011 | 1024 | 24029 10393 32704 10092 20067 30108 40235 7//// 8//// | |||
| 2013-04-24T03:00 | 4 | 270 | 3 | 7.6 | 6.1 | 1011 | 1024 | 24039 10393 42703 10076 20061 30113 40241 7//// 8//// | |||
| 2013-04-24T04:00 | 4 | 240 | 2 | 6.7 | 5.8 | 1012 | 1025 | 10 | 0 | 0 | 24049 10393 42402 10067 20058 30118 40246 71000 8//// |
| 2013-04-24T05:00 | 6 | 230 | 2 | 7.1 | 6.2 | 1012 | 1025 | 10 | 1 | 1 | 24059 10393 62302 10071 20062 30121 40249 71011 8//// |
| 2013-04-24T06:00 | 7 | 230 | 2 | 8.9 | 6.8 | 1013 | 1026 | 24069 10393 72302 10089 20068 30129 40256 7//// 8//// | |||
| 2013-04-24T07:00 | 7 | 270 | 2 | 10.3 | 5.3 | 1013 | 1026 | 24079 10393 72702 10103 20053 30134 40261 7//// 8//// | |||
| 2013-04-24T08:00 | 7 | 270 | 3 | 11.4 | 4.9 | 1014 | 1026 | 24089 10393 72703 10114 20049 30137 40264 7//// 8//// | |||
| 2013-04-24T09:00 | 7 | 290 | 4 | 12.2 | 4.2 | 1014 | 1026 | 24099 10393 72904 10122 20042 30138 40264 7//// 8//// | |||
| 2013-04-24T10:00 | 7 | 300 | 4 | 14.0 | 6.3 | 1014 | 1026 | 24109 10393 73004 10140 20063 30136 40261 7//// 8//// | |||
| 2013-04-24T11:00 | 7 | 300 | 3 | 15.1 | 5.9 | 1013 | 1026 | 24119 10393 73003 10151 20059 30134 40259 7//// 8//// | |||
| 2013-04-24T12:00 | 5 | 300 | 3 | 15.6 | 5.2 | 1013 | 1025 | 24129 10393 53003 10156 20052 30126 40251 7//// 8//// | |||
| 2013-04-24T13:00 | 4 | 240 | 6 | 16.4 | 5.9 | 1012 | 1024 | 24139 10393 42406 10164 20059 30120 40244 7//// 8//// | |||
| 2013-04-24T14:00 | 6 | 250 | 5 | 17.8 | 6.8 | 1011 | 1024 | 24149 10393 62505 10178 20068 30114 40237 7//// 8//// | |||
| 2013-04-24T15:00 | 6 | 230 | 5 | 18.0 | 7.1 | 1011 | 1023 | 24159 10393 62305 10180 20071 30106 40229 7//// 8//// | |||
| 2013-04-24T16:00 | 5 | 230 | 6 | 18.4 | 7.0 | 1010 | 1022 | 24169 10393 52306 10184 20070 30101 40224 7//// 8//// | |||
| 2013-04-24T17:00 | 3 | 240 | 4 | 18.2 | 7.3 | 1010 | 1022 | 24179 10393 32404 10182 20073 30098 40221 7//// 8//// | |||
| 2013-04-24T18:00 | 2 | 230 | 3 | 16.8 | 8.0 | 1010 | 1022 | 24189 10393 22303 10168 20080 30097 40221 7//// 8//// | |||
| 2013-04-24T19:00 | 2 | 230 | 3 | 15.2 | 7.9 | 1010 | 1022 | 24199 10393 22303 10152 20079 30098 40222 7//// 8//// | |||
| 2013-04-24T20:00 | 2 | 230 | 3 | 14.1 | 7.6 | 1010 | 1022 | 24209 10393 22303 10141 20076 30100 40225 7//// 8//// | |||
| 2013-04-24T21:00 | 3 | 230 | 3 | 13.6 | 7.4 | 1010 | 1022 | 24219 10393 32303 10136 20074 30097 40222 7//// 8//// | |||
| 2013-04-24T22:00 | 3 | 230 | 3 | 13.1 | 7.4 | 1010 | 1022 | 24229 10393 32303 10131 20074 30097 40222 7//// 8//// | |||
| 2013-04-24T23:00 | 5 | 230 | 3 | 12.8 | 7.5 | 1010 | 1022 | 24239 10393 52303 10128 20075 30096 40221 7//// 8//// | |||
| 2013-04-25T00:00 | 7 | 220 | 3 | 12.3 | 7.5 | 1009 | 1022 | 25009 10393 72203 10123 20075 30093 40218 7//// 8//// | |||
| 2013-04-25T01:00 | 7 | 230 | 4 | 11.9 | 7.5 | 1009 | 1022 | 25019 10393 72304 10119 20075 30093 40219 7//// 8//// | |||
| 2013-04-25T02:00 | 6 | 240 | 3 | 11.6 | 7.6 | 1009 | 1022 | 25029 10393 62403 10116 20076 30093 40219 7//// 8//// | |||
| 2013-04-25T03:00 | 5 | 290 | 3 | 10.1 | 7.1 | 1010 | 1023 | 25039 10393 52903 10101 20071 30099 40226 7//// 8//// | |||
| 2013-04-25T04:00 | 7 | 270 | 2 | 10.9 | 7.9 | 1010 | 1023 | 25049 10393 72702 10109 20079 30101 40227 7//// 8//// | |||
| 2013-04-25T05:00 | 7 | 270 | 3 | 12.0 | 8.6 | 1010 | 1023 | 25059 10393 72703 10120 20086 30104 40230 7//// 8//// | |||
| 2013-04-25T06:00 | 7 | 270 | 3 | 13.0 | 9.3 | 1011 | 1023 | 25069 10393 72703 10130 20093 30109 40234 7//// 8//// | |||
| 2013-04-25T07:00 | 7 | 290 | 3 | 13.9 | 9.7 | 1011 | 1024 | 25079 10393 72903 10139 20097 30114 40239 7//// 8//// | |||
| 2013-04-25T08:00 | 7 | 290 | 3 | 15.0 | 9.7 | 1012 | 1024 | 25089 10393 72903 10150 20097 30119 40244 7//// 8//// | |||
| 2013-04-25T09:00 | 7 | 300 | 3 | 15.8 | 10.6 | 1012 | 1025 | 25099 10393 73003 10158 20106 30123 40247 7//// 8//// | |||
| 2013-04-25T10:00 | 7 | 270 | 2 | 16.1 | 10.0 | 1012 | 1025 | 25109 10393 72702 10161 20100 30122 40246 7//// 8//// | |||
| 2013-04-25T11:00 | 7 | 300 | 2 | 16.6 | 10.4 | 1012 | 1024 | 25119 10393 73002 10166 20104 30119 40243 7//// 8//// | |||
| 2013-04-25T12:00 | 7 | 310 | 4 | 17.7 | 10.8 | 1011 | 1024 | 80 | 2 | 2 | 25129 10393 73104 10177 20108 30114 40237 78022 8//// |
| 2013-04-25T13:00 | 6 | 280 | 4 | 17.8 | 10.1 | 1011 | 1023 | 25 | 2 | 2 | 25139 10393 62804 10178 20101 30110 40233 72522 8//// |
| 2013-04-25T14:00 | 6 | 300 | 3 | 18.3 | 10.5 | 1010 | 1023 | 25149 10393 63003 10183 20105 30105 40228 7//// 8//// | |||
| 2013-04-25T15:00 | 5 | 270 | 3 | 18.8 | 10.2 | 1010 | 1022 | 1 | 8 | 2 | 25159 10393 52703 10188 20102 30099 40222 70182 8//// |
| 2013-04-25T16:00 | 3 | 290 | 2 | 19.3 | 9.4 | 1009 | 1022 | 25169 10393 32902 10193 20094 30093 40215 7//// 8//// | |||
| 2013-04-25T17:00 | 2 | 310 | 2 | 19.4 | 9.7 | 1009 | 1021 | 25179 10393 23102 10194 20097 30087 40209 7//// 8//// | |||
| 2013-04-25T18:00 | 3 | 30 | 1 | 17.4 | 9.9 | 1008 | 1020 | 3 | 8 | 1 | 25189 10393 30301 10174 20099 30080 40203 70381 8//// |
| 2013-04-25T19:00 | 4 | 90 | 2 | 16.1 | 10.0 | 1008 | 1020 | 25199 10393 40902 10161 20100 30077 40201 7//// 8//// | |||
| 2013-04-25T20:00 | 4 | 110 | 3 | 16.1 | 9.8 | 1007 | 1020 | 25209 10393 41103 10161 20098 30072 40195 7//// 8//// | |||
| 2013-04-25T21:00 | 7 | 120 | 3 | 15.4 | 10.1 | 1007 | 1019 | 25219 10393 71203 10154 20101 30069 40193 7//// 8//// | |||
| 2013-04-25T22:00 | 7 | 130 | 3 | 14.4 | 10.3 | 1006 | 1019 | 25229 10393 71303 10144 20103 30062 40186 7//// 8//// | |||
| 2013-04-25T23:00 | 7 | 150 | 3 | 13.7 | 10.3 | 1005 | 1018 | 25239 10393 71503 10137 20103 30054 40178 7//// 8//// | |||
| 2013-04-26T00:00 | 7 | 140 | 3 | 13.8 | 10.2 | 1004 | 1017 | 26009 10393 71403 10138 20102 30042 40166 7//// 8//// | |||
| 2013-04-26T01:00 | 7 | 150 | 3 | 14.0 | 10.6 | 1003 | 1016 | 26019 10393 71503 10140 20106 30031 40155 7//// 8//// | |||
| 2013-04-26T02:00 | 5 | 150 | 3 | 13.6 | 10.6 | 1002 | 1014 | 26029 10393 51503 10136 20106 30019 40143 7//// 8//// | |||
| 2013-04-26T03:00 | 4 | 160 | 3 | 12.5 | 10.3 | 1001 | 1013 | 26039 10393 41603 10125 20103 30008 40132 7//// 8//// | |||
| 2013-04-26T04:00 | 2 | 180 | 4 | 12.1 | 9.9 | 1000 | 1012 | 26049 10393 21804 10121 20099 30000 40124 7//// 8//// | |||
| 2013-04-26T05:00 | 1 | 170 | 3 | 11.9 | 9.8 | 999 | 1012 | 26059 10393 11703 10119 20098 39993 40117 7//// 8//// | |||
| 2013-04-26T06:00 | 3 | 190 | 2 | 14.1 | 10.0 | 999 | 1011 | 26069 10393 31902 10141 20100 39990 40113 7//// 8//// | |||
| 2013-04-26T07:00 | 3 | 240 | 4 | 17.1 | 9.8 | 999 | 1011 | 26079 10393 32404 10171 20098 39987 40109 7//// 8//// | |||
| 2013-04-26T08:00 | 4 | 230 | 4 | 19.6 | 9.7 | 998 | 1010 | 26089 10393 42304 10196 20097 39981 40102 7//// 8//// | |||
| 2013-04-26T09:00 | 3 | 220 | 3 | 21.1 | 9.5 | 998 | 1010 | 26099 10393 32203 10211 20095 39976 40096 7//// 8//// | |||
| 2013-04-26T10:00 | 6 | 280 | 3 | 22.5 | 9.6 | 997 | 1009 | 26109 10393 62803 10225 20096 39969 40089 7//// 8//// | |||
| 2013-04-26T11:00 | 3 | 320 | 2 | 23.2 | 10.4 | 996 | 1008 | 26119 10393 33202 10232 20104 39959 40078 7//// 8//// | |||
| 2013-04-26T12:00 | 6 | 240 | 2 | 23.6 | 9.8 | 995 | 1007 | 26129 10393 62402 10236 20098 39951 40070 7//// 8//// | |||
| 2013-04-26T13:00 | 6 | 300 | 2 | 23.0 | 9.9 | 994 | 1006 | 26139 10393 63002 10230 20099 39939 40058 7//// 8//// | |||
| 2013-04-26T14:00 | 7 | 230 | 3 | 22.5 | 8.6 | 993 | 1005 | 80 | 2 | 2 | 26149 10393 72303 10225 20086 39932 40051 78022 8//// |
| 2013-04-26T15:00 | 6 | 300 | 2 | 22.0 | 9.2 | 992 | 1004 | 25 | 8 | 2 | 26159 10393 63002 10220 20092 39924 40043 72582 8//// |
| 2013-04-26T16:00 | 8 | 220 | 1 | 22.7 | 9.5 | 991 | 1003 | 25 | 2 | 2 | 26169 10393 82201 10227 20095 39911 40030 72522 8//// |
| 2013-04-26T17:00 | 8 | 250 | 2 | 21.7 | 10.4 | 990 | 1002 | 61 | 6 | 2 | 26179 10393 82502 10217 20104 39905 40024 76162 8//// |
| 2013-04-26T18:00 | 8 | 300 | 4 | 16.0 | 13.2 | 990 | 1003 | 61 | 8 | 6 | 26189 10393 83004 10160 20132 39905 40026 76186 8//// |
| 2013-04-26T19:00 | 8 | 310 | 2 | 14.9 | 12.7 | 990 | 1002 | 61 | 6 | 6 | 26199 10393 83102 10149 20127 39901 40023 76166 8//// |
| 2013-04-26T20:00 | 8 | 280 | 4 | 15.2 | 12.0 | 990 | 1002 | 60 | 6 | 6 | 26209 10393 82804 10152 20120 39900 40022 76066 8//// |
| 2013-04-26T21:00 | 8 | 280 | 3 | 13.7 | 12.5 | 990 | 1002 | 63 | 6 | 6 | 26219 10393 82803 10137 20125 39895 40017 76366 8//// |
| 2013-04-26T22:00 | 8 | 270 | 4 | 13.5 | 12.5 | 989 | 1001 | 60 | 6 | 6 | 26229 10393 82704 10135 20125 39891 40013 76066 8//// |
| 2013-04-26T23:00 | 8 | 240 | 4 | 13.3 | 12.7 | 989 | 1002 | 63 | 6 | 6 | 26239 10393 82404 10133 20127 39893 40015 76366 8//// |
| 2013-04-27T00:00 | 8 | 230 | 4 | 13.2 | 13.0 | 990 | 1002 | 65 | 6 | 2 | 27009 10393 82304 10132 20130 39895 40017 76562 8//// |
| 2013-04-27T01:00 | 8 | 350 | 5 | 8.6 | 8.0 | 990 | 1002 | 61 | 6 | 6 | 27019 10393 83505 10086 20080 39900 40025 76166 8//// |
| 2013-04-27T02:00 | 8 | 340 | 3 | 7.4 | 6.9 | 990 | 1003 | 61 | 6 | 6 | 27029 10393 83403 10074 20069 39904 40029 76166 8//// |
| 2013-04-27T03:00 | 8 | 330 | 3 | 7.3 | 6.8 | 991 | 1003 | 21 | 6 | 6 | 27039 10393 83303 10073 20068 39907 40032 72166 8//// |
| 2013-04-27T04:00 | 8 | 340 | 3 | 7.2 | 6.6 | 992 | 1004 | 27049 10393 83403 10072 20066 39915 40041 7//// 8//// | |||
| 2013-04-27T05:00 | 8 | 350 | 4 | 7.0 | 6.4 | 992 | 1004 | 27059 10393 83504 10070 20064 39919 40045 7//// 8//// | |||
| 2013-04-27T06:00 | 8 | 360 | 3 | 6.9 | 5.8 | 993 | 1005 | 2 | 6 | 2 | 27069 10393 83603 10069 20058 39928 40054 70262 8//// |
| 2013-04-27T07:00 | 8 | 350 | 2 | 6.7 | 5.9 | 993 | 1006 | 27079 10393 83502 10067 20059 39933 40059 7//// 8//// | |||
| 2013-04-27T08:00 | 8 | 10 | 3 | 7.6 | 5.7 | 994 | 1006 | 27089 10393 80103 10076 20057 39938 40064 7//// 8//// | |||
| 2013-04-27T09:00 | 8 | 320 | 2 | 6.9 | 5.5 | 995 | 1008 | 60 | 2 | 2 | 27099 10393 83202 10069 20055 39951 40077 76022 8//// |
| 2013-04-27T10:00 | 8 | 360 | 3 | 7.7 | 6.3 | 995 | 1008 | 60 | 6 | 6 | 27109 10393 83603 10077 20063 39954 40080 76066 8//// |
| 2013-04-27T11:00 | 8 | 10 | 3 | 8.3 | 5.9 | 995 | 1008 | 21 | 2 | 2 | 27119 10393 80103 10083 20059 39954 40080 72122 8//// |
| 2013-04-27T12:00 | 7 | 360 | 3 | 9.0 | 6.8 | 995 | 1008 | 60 | 6 | 2 | 27129 10393 73603 10090 20068 39954 40079 76062 8//// |
| 2013-04-27T13:00 | 8 | 20 | 2 | 8.7 | 5.2 | 996 | 1008 | 21 | 2 | 2 | 27139 10393 80202 10087 20052 39957 40082 72122 8//// |
| 2013-04-27T14:00 | 8 | 10 | 4 | 8.6 | 5.4 | 996 | 1008 | 21 | 2 | 2 | 27149 10393 80104 10086 20054 39958 40083 72122 8//// |
| 2013-04-27T15:00 | 8 | 10 | 3 | 8.6 | 5.4 | 996 | 1008 | 21 | 6 | 2 | 27159 10393 80103 10086 20054 39958 40083 72162 8//// |
| 2013-04-27T16:00 | 8 | 10 | 4 | 8.4 | 5.1 | 996 | 1008 | 21 | 6 | 2 | 27169 10393 80104 10084 20051 39957 40083 72162 8//// |
| 2013-04-27T17:00 | 8 | 20 | 3 | 7.6 | 4.9 | 996 | 1009 | 61 | 6 | 2 | 27179 10393 80203 10076 20049 39963 40089 76162 8//// |
| 2013-04-27T18:00 | 8 | 10 | 2 | 7.2 | 5.5 | 997 | 1009 | 60 | 6 | 2 | 27189 10393 80102 10072 20055 39966 40092 76062 8//// |
| 2013-04-27T19:00 | 8 | 350 | 2 | 6.8 | 5.8 | 997 | 1010 | 61 | 6 | 6 | 27199 10393 83502 10068 20058 39974 40100 76166 8//// |
| 2013-04-27T20:00 | 8 | 350 | 2 | 6.1 | 4.5 | 998 | 1010 | 61 | 6 | 6 | 27209 10393 83502 10061 20045 39978 40105 76166 8//// |
| 2013-04-27T21:00 | 8 | 360 | 2 | 5.7 | 3.9 | 998 | 1010 | 21 | 6 | 2 | 27219 10393 83602 10057 20039 39976 40103 72162 8//// |
| 2013-04-27T22:00 | 8 | 360 | 2 | 5.8 | 3.0 | 998 | 1011 | 60 | 2 | 2 | 27229 10393 83602 10058 20030 39980 40107 76022 8//// |
| 2013-04-27T23:00 | 8 | 10 | 2 | 5.6 | 3.0 | 998 | 1011 | 21 | 6 | 2 | 27239 10393 80102 10056 20030 39981 40108 72162 8//// |
| 2013-04-28T00:00 | 8 | 10 | 2 | 4.7 | 3.3 | 998 | 1011 | 63 | 6 | 2 | 28009 10393 80102 10047 20033 39982 40110 76362 8//// |
| 2013-04-28T01:00 | 8 | 360 | 2 | 4.8 | 2.8 | 998 | 1011 | 60 | 2 | 2 | 28019 10393 83602 10048 20028 39982 40110 76022 8//// |
| 2013-04-28T02:00 | 8 | 350 | 2 | 4.8 | 3.7 | 998 | 1011 | 21 | 6 | 6 | 28029 10393 83502 10048 20037 39985 40113 72166 8//// |
| 2013-04-28T03:00 | 8 | 340 | 2 | 4.8 | 4.0 | 999 | 1012 | 21 | 6 | 2 | 28039 10393 83402 10048 20040 39987 40115 72162 8//// |
| 2013-04-28T04:00 | 8 | 320 | 2 | 5.0 | 4.4 | 999 | 1012 | 28049 10393 83202 10050 20044 39992 40120 7//// 8//// | |||
| 2013-04-28T05:00 | 8 | 330 | 2 | 5.6 | 4.9 | 1000 | 1012 | 10 | 2 | 2 | 28059 10393 83302 10056 20049 39995 40122 71022 8//// |
| 2013-04-28T06:00 | 8 | 290 | 2 | 6.2 | 5.1 | 1000 | 1013 | 10 | 6 | 2 | 28069 10393 82902 10062 20051 30005 40132 71062 8//// |
| 2013-04-28T07:00 | 8 | 300 | 3 | 6.8 | 5.0 | 1001 | 1014 | 10 | 2 | 2 | 28079 10393 83003 10068 20050 30012 40139 71022 8//// |
| 2013-04-28T08:00 | 8 | 290 | 2 | 7.4 | 5.1 | 1002 | 1015 | 28089 10393 82902 10074 20051 30020 40147 7//// 8//// | |||
| 2013-04-28T09:00 | 7 | 290 | 2 | 8.3 | 5.0 | 1003 | 1016 | 28099 10393 72902 10083 20050 30028 40155 7//// 8//// | |||
| 2013-04-28T10:00 | 6 | 290 | 2 | 9.8 | 5.3 | 1003 | 1016 | 28109 10393 62902 10098 20053 30034 40160 7//// 8//// | |||
| 2013-04-28T11:00 | 6 | 240 | 2 | 10.6 | 3.6 | 1003 | 1016 | 28119 10393 62402 10106 20036 30033 40159 7//// 8//// | |||
| 2013-04-28T12:00 | 7 | 270 | 2 | 11.4 | 2.2 | 1004 | 1016 | 28129 10393 72702 10114 20022 30039 40164 7//// 8//// | |||
| 2013-04-28T13:00 | 7 | 290 | 2 | 12.1 | 1.0 | 1004 | 1016 | 28139 10393 72902 10121 20010 30039 40164 7//// 8//// | |||
| 2013-04-28T14:00 | 4 | 270 | 2 | 13.2 | 2.3 | 1004 | 1016 | 28149 10393 42702 10132 20023 30038 40163 7//// 8//// | |||
| 2013-04-28T15:00 | 2 | 240 | 2 | 13.1 | -0.7 | 1004 | 1016 | 28159 10393 22402 10131 21007 30038 40163 7//// 8//// | |||
| 2013-04-28T16:00 | 2 | 150 | 2 | 13.1 | 0.7 | 1004 | 1016 | 28169 10393 21502 10131 20007 30036 40161 7//// 8//// | |||
| 2013-04-28T17:00 | 1 | 170 | 2 | 12.7 | 0.4 | 1003 | 1016 | 28179 10393 11702 10127 20004 30034 40159 7//// 8//// | |||
| 2013-04-28T18:00 | 2 | 200 | 2 | 11.7 | 2.1 | 1004 | 1016 | 28189 10393 22002 10117 20021 30035 40160 7//// 8//// | |||
| 2013-04-28T19:00 | 5 | 200 | 2 | 10.3 | 3.3 | 1004 | 1016 | 28199 10393 52002 10103 20033 30037 40163 7//// 8//// | |||
| 2013-04-28T20:00 | 3 | 210 | 3 | 9.5 | 3.6 | 1004 | 1017 | 28209 10393 32103 10095 20036 30040 40166 7//// 8//// | |||
| 2013-04-28T21:00 | 0 | 190 | 2 | 8.3 | 3.9 | 1004 | 1016 | 28219 10393 01902 10083 20039 30036 40163 7//// 8//// | |||
| 2013-04-28T22:00 | 8 | 200 | 2 | 8.5 | 4.7 | 1004 | 1017 | 28229 10393 82002 10085 20047 30040 40167 7//// 8//// | |||
| 2013-04-28T23:00 | 8 | 160 | 2 | 8.0 | 5.0 | 1004 | 1016 | 28239 10393 81602 10080 20050 30035 40162 7//// 8//// | |||
| 2013-04-29T00:00 | 0 | 160 | 2 | 7.1 | 4.9 | 1003 | 1016 | 29009 10393 01602 10071 20049 30034 40161 7//// 8//// | |||
| 2013-04-29T01:00 | 8 | 130 | 2 | 7.7 | 5.0 | 1003 | 1016 | 29019 10393 81302 10077 20050 30032 40159 7//// 8//// | |||
| 2013-04-29T02:00 | 8 | 130 | 3 | 7.3 | 5.3 | 1002 | 1015 | 29029 10393 81303 10073 20053 30024 40151 7//// 8//// | |||
| 2013-04-29T03:00 | 8 | 150 | 2 | 7.1 | 5.3 | 1002 | 1015 | 29039 10393 81502 10071 20053 30022 40149 7//// 8//// | |||
| 2013-04-29T04:00 | 8 | 150 | 2 | 7.2 | 5.6 | 1002 | 1015 | 29049 10393 81502 10072 20056 30019 40146 7//// 8//// | |||
| 2013-04-29T05:00 | 8 | 180 | 2 | 7.4 | 5.7 | 1002 | 1015 | 21 | 2 | 2 | 29059 10393 81802 10074 20057 30020 40147 72122 8//// |
| 2013-04-29T06:00 | 8 | 200 | 2 | 8.2 | 6.3 | 1002 | 1015 | 21 | 6 | 1 | 29069 10393 82002 10082 20063 30021 40147 72161 8//// |
| 2013-04-29T07:00 | 8 | 210 | 2 | 9.7 | 6.7 | 1002 | 1015 | 60 | 2 | 2 | 29079 10393 82102 10097 20067 30020 40146 76022 8//// |
| 2013-04-29T08:00 | 8 | 230 | 4 | 11.0 | 6.3 | 1002 | 1015 | 21 | 2 | 2 | 29089 10393 82304 10110 20063 30021 40146 72122 8//// |
| 2013-04-29T09:00 | 8 | 210 | 4 | 11.6 | 6.1 | 1002 | 1015 | 3 | 6 | 2 | 29099 10393 82104 10116 20061 30022 40147 70362 8//// |
| 2013-04-29T10:00 | 7 | 230 | 6 | 12.6 | 6.3 | 1002 | 1015 | 29109 10393 72306 10126 20063 30022 40147 7//// 8//// | |||
| 2013-04-29T11:00 | 8 | 240 | 6 | 12.3 | 6.2 | 1003 | 1015 | 29119 10393 82406 10123 20062 30026 40151 7//// 8//// | |||
| 2013-04-29T12:00 | 8 | 250 | 6 | 12.0 | 7.2 | 1003 | 1015 | 1 | 6 | 2 | 29129 10393 82506 10120 20072 30027 40152 70162 8//// |
| 2013-04-29T13:00 | 5 | 220 | 6 | 14.2 | 6.6 | 1003 | 1015 | 29139 10393 52206 10142 20066 30028 40152 7//// 8//// | |||
| 2013-04-29T14:00 | 6 | 230 | 6 | 13.9 | 5.5 | 1003 | 1015 | 29149 10393 62306 10139 20055 30027 40151 7//// 8//// | |||
| 2013-04-29T15:00 | 5 | 240 | 7 | 15.0 | 5.6 | 1003 | 1015 | 29159 10393 52407 10150 20056 30029 40153 7//// 8//// | |||
| 2013-04-29T16:00 | 5 | 250 | 6 | 14.3 | 3.5 | 1004 | 1016 | 29169 10393 52506 10143 20035 30037 40161 7//// 8//// | |||
| 2013-04-29T17:00 | 5 | 240 | 5 | 13.9 | 4.3 | 1004 | 1016 | 29179 10393 52405 10139 20043 30041 40165 7//// 8//// | |||
| 2013-04-29T18:00 | 4 | 240 | 4 | 13.2 | 4.2 | 1005 | 1017 | 29189 10393 42404 10132 20042 30046 40171 7//// 8//// | |||
| 2013-04-29T19:00 | 6 | 220 | 3 | 11.6 | 4.4 | 1005 | 1018 | 29199 10393 62203 10116 20044 30053 40178 7//// 8//// | |||
| 2013-04-29T20:00 | 6 | 220 | 3 | 10.7 | 4.5 | 1006 | 1019 | 29209 10393 62203 10107 20045 30060 40186 7//// 8//// | |||
| 2013-04-29T21:00 | 4 | 280 | 3 | 8.9 | 4.3 | 1007 | 1019 | 29219 10393 42803 10089 20043 30066 40193 7//// 8//// | |||
| 2013-04-29T22:00 | 8 | 280 | 2 | 8.8 | 4.6 | 1007 | 1020 | 29229 10393 82802 10088 20046 30072 40199 7//// 8//// | |||
| 2013-04-29T23:00 | 8 | 300 | 3 | 9.5 | 4.2 | 1007 | 1020 | 29239 10393 83003 10095 20042 30074 40201 7//// 8//// | |||
| 2013-04-30T00:00 | 7 | 310 | 4 | 9.2 | 3.8 | 1007 | 1020 | 30009 10393 73104 10092 20038 30074 40201 7//// 8//// | |||
| 2013-04-30T01:00 | 3 | 310 | 3 | 8.1 | 3.3 | 1008 | 1020 | 30019 10393 33103 10081 20033 30078 40205 7//// 8//// | |||
| 2013-04-30T02:00 | 6 | 300 | 2 | 7.0 | 3.1 | 1008 | 1021 | 30029 10393 63002 10070 20031 30082 40210 7//// 8//// | |||
| 2013-04-30T03:00 | 5 | 200 | 2 | 5.5 | 2.6 | 1009 | 1022 | 30039 10393 52002 10055 20026 30087 40216 7//// 8//// | |||
| 2013-04-30T04:00 | 7 | 230 | 2 | 6.1 | 3.3 | 1009 | 1022 | 30049 10393 72302 10061 20033 30090 40218 7//// 8//// | |||
| 2013-04-30T05:00 | 7 | 280 | 2 | 6.8 | 4.2 | 1009 | 1022 | 30059 10393 72802 10068 20042 30093 40221 7//// 8//// | |||
| 2013-04-30T06:00 | 8 | 260 | 1 | 8.0 | 4.4 | 1009 | 1022 | 30069 10393 82601 10080 20044 30094 40222 7//// 8//// | |||
| 2013-04-30T07:00 | 8 | 310 | 2 | 9.4 | 4.7 | 1010 | 1022 | 30079 10393 83102 10094 20047 30097 40224 7//// 8//// | |||
| 2013-04-30T08:00 | 7 | 330 | 1 | 10.3 | 4.2 | 1010 | 1023 | 30089 10393 73301 10103 20042 30101 40228 7//// 8//// | |||
| 2013-04-30T09:00 | 7 | 300 | 2 | 11.7 | -0.1 | 1010 | 1023 | 30099 10393 73002 10117 21001 30101 40227 7//// 8//// | |||
| 2013-04-30T10:00 | 7 | 330 | 2 | 13.1 | 2.1 | 1010 | 1023 | 30109 10393 73302 10131 20021 30101 40226 7//// 8//// | |||
| 2013-04-30T11:00 | 8 | 240 | 1 | 13.1 | 2.4 | 1010 | 1022 | 30119 10393 82401 10131 20024 30097 40222 7//// 8//// | |||
| 2013-04-30T12:00 | 8 | 180 | 1 | 13.2 | 4.3 | 1010 | 1022 | 30129 10393 81801 10132 20043 30095 40220 7//// 8//// | |||
| 2013-04-30T13:00 | 8 | 260 | 2 | 13.7 | 2.1 | 1009 | 1022 | 30139 10393 82602 10137 20021 30093 40218 7//// 8//// | |||
| 2013-04-30T14:00 | 8 | 310 | 1 | 13.7 | 2.6 | 1009 | 1022 | 30149 10393 83101 10137 20026 30091 40216 7//// 8//// | |||
| 2013-04-30T15:00 | 8 | 250 | 2 | 13.5 | 2.1 | 1009 | 1022 | 30159 10393 82502 10135 20021 30090 40215 7//// 8//// | |||
| 2013-04-30T16:00 | 8 | 90 | 1 | 13.4 | 3.9 | 1009 | 1022 | 30169 10393 80901 10134 20039 30090 40215 7//// 8//// | |||
| 2013-04-30T17:00 | 8 | 140 | 2 | 12.9 | 5.5 | 1009 | 1022 | 30179 10393 81402 10129 20055 30092 40217 7//// 8//// | |||
| 2013-04-30T18:00 | 8 | 190 | 1 | 12.1 | 5.8 | 1010 | 1022 | 30189 10393 81901 10121 20058 30095 40221 7//// 8//// | |||
| 2013-04-30T19:00 | 8 | 220 | 1 | 11.6 | 5.6 | 1010 | 1022 | 30199 10393 82201 10116 20056 30098 40224 7//// 8//// | |||
| 2013-04-30T20:00 | 8 | 220 | 2 | 11.4 | 5.6 | 1010 | 1023 | 30209 10393 82202 10114 20056 30103 40229 7//// 8//// | |||
| 2013-04-30T21:00 | 8 | 180 | 2 | 10.7 | 6.0 | 1010 | 1023 | 30219 10393 81802 10107 20060 30105 40231 7//// 8//// | |||
| 2013-04-30T22:00 | 8 | 210 | 2 | 10.3 | 5.9 | 1011 | 1024 | 30229 10393 82102 10103 20059 30108 40235 7//// 8//// | |||
| 2013-04-30T23:00 | 7 | 220 | 2 | 10.0 | 5.7 | 1011 | 1024 | 30239 10393 72202 10100 20057 30113 40240 7//// 8//// |
